Time,TemperatureF,DewpointF,PressureIn,WindDirection,WindDirectionDegrees,WindSpeedMPH,WindSpeedGustMPH,Humidity,HourlyPrecipIn,Conditions,Clouds,dailyrainin,SoftwareType,DateUTC
2013-02-24 00:00:00,-23.0,-27.6,29.40,North,355,0.0,0.0,78,0.00,,---,0.00,VWS V14.01,2013-02-24 09:00:00,
2013-02-24 00:01:00,-20.8,-25.3,29.40,NNW,335,0.0,0.0,79,0.00,,---,0.00,VWS V14.01,2013-02-24 09:01:00,
2013-02-24 00:02:00,-20.8,-25.3,29.40,NNW,335,0.0,0.0,79,0.00,,---,0.00,VWS V14.01,2013-02-24 09:02:00,
2013-02-24 00:04:00,-20.8,-25.3,29.40,NNW,335,0.0,0.0,79,0.00,,---,0.00,VWS V14.01,2013-02-24 09:04:00,
2013-02-24 00:05:00,-20.8,-25.3,29.40,NNW,335,0.0,0.0,79,0.00,,---,0.00,VWS V14.01,2013-02-24 09:05:00,
2013-02-24 00:07:00,-21.0,-25.7,29.40,NNW,335,0.0,0.0,78,0.00,,---,0.00,VWS V14.01,2013-02-24 09:07:00,
2013-02-24 00:09:00,-20.9,-25.6,29.40,NNW,335,0.0,0.0,78,0.00,,---,0.00,VWS V14.01,2013-02-24 09:09:00,
2013-02-24 00:10:00,-20.9,-25.6,29.40,NNW,335,0.0,0.0,78,0.00,,---,0.00,VWS V14.01,2013-02-24 09:10:00,
2013-02-24 00:12:00,-20.8,-25.5,29.40,NNW,335,0.0,0.0,78,0.00,,---,0.00,VWS V14.01,2013-02-24 09:12:00,
2013-02-24 00:14:00,-20.8,-25.5,29.40,NNW,335,0.0,0.0,78,0.00,,---,0.00,VWS V14.01,2013-02-24 09:14:00,
2013-02-24 00:15:00,-20.8,-25.5,29.40,NNW,335,0.0,0.0,78,0.00,,---,0.00,VWS V14.01,2013-02-24 09:15:00,
2013-02-24 00:17:00,-21.0,-25.7,29.40,NNW,335,0.0,0.0,78,0.00,,---,0.00,VWS V14.01,2013-02-24 09:17:00,
2013-02-24 00:19:00,-21.1,-25.8,29.40,NNW,335,0.0,0.0,78,0.00,,---,0.00,VWS V14.01,2013-02-24 09:19:00,
2013-02-24 00:20:00,-21.0,-25.7,29.40,NNW,335,0.0,0.0,78,0.00,,---,0.00,VWS V14.01,2013-02-24 09:20:00,
2013-02-24 00:22:00,-21.3,-26.0,29.40,NNW,335,0.0,0.0,78,0.00,,---,0.00,VWS V14.01,2013-02-24 09:22:00,
2013-02-24 00:24:00,-21.5,-26.4,29.40,NNW,335,0.0,0.0,77,0.00,,---,0.00,VWS V14.01,2013-02-24 09:24:00,
2013-02-24 00:25:00,-21.2,-25.9,29.40,NNW,335,0.0,0.0,78,0.00,,---,0.00,VWS V14.01,2013-02-24 09:25:00,
2013-02-24 00:27:00,-21.7,-26.6,29.41,NNW,335,0.0,0.0,77,0.00,,---,0.00,VWS V14.01,2013-02-24 09:27:00,
2013-02-24 00:28:00,-21.7,-26.6,29.41,NNW,335,0.0,0.0,77,0.00,,---,0.00,VWS V14.01,2013-02-24 09:28:00,
2013-02-24 00:29:00,-21.9,-26.8,29.41,NNW,335,0.0,0.0,77,0.00,,---,0.00,VWS V14.01,2013-02-24 09:29:00,
2013-02-24 00:30:00,-21.7,-26.6,29.41,NNW,335,0.0,0.0,77,0.00,,---,0.00,VWS V14.01,2013-02-24 09:30:00,
2013-02-24 00:33:00,-22.0,-26.9,29.41,NNW,335,0.0,0.0,77,0.00,,---,0.00,VWS V14.01,2013-02-24 09:33:00,
2013-02-24 00:34:00,-22.1,-27.0,29.41,NNW,335,0.0,0.0,77,0.00,,---,0.00,VWS V14.01,2013-02-24 09:34:00,
2013-02-24 00:35:00,-22.0,-26.9,29.41,NNW,335,0.0,0.0,77,0.00,,---,0.00,VWS V14.01,2013-02-24 09:35:00,
2013-02-24 00:38:00,-22.1,-27.0,29.41,NNW,335,0.0,0.0,77,0.00,,---,0.00,VWS V14.01,2013-02-24 09:38:00,
2013-02-24 00:39:00,-22.0,-26.9,29.41,NNW,335,0.0,0.0,77,0.00,,---,0.00,VWS V14.01,2013-02-24 09:39:00,
2013-02-24 00:40:00,-22.0,-26.7,29.41,NNW,335,0.0,0.0,78,0.00,,---,0.00,VWS V14.01,2013-02-24 09:40:00,
2013-02-24 00:43:00,-22.1,-26.8,29.41,NNW,335,0.0,0.0,78,0.00,,---,0.00,VWS V14.01,2013-02-24 09:43:00,
2013-02-24 00:45:00,-22.2,-26.9,29.41,NNW,335,0.0,0.0,78,0.00,,---,0.00,VWS V14.01,2013-02-24 09:45:00,
2013-02-24 00:48:00,-22.1,-26.8,29.41,NNW,335,0.0,0.0,78,0.00,,---,0.00,VWS V14.01,2013-02-24 09:48:00,
2013-02-24 00:50:00,-22.1,-26.8,29.42,NNW,335,0.0,0.0,78,0.00,,---,0.00,VWS V14.01,2013-02-24 09:50:00,
2013-02-24 00:53:00,-22.2,-26.9,29.42,NNW,335,0.0,0.0,78,0.00,,---,0.00,VWS V14.01,2013-02-24 09:53:00,
2013-02-24 00:55:00,-22.2,-26.9,29.42,NNW,335,0.0,0.0,78,0.00,,---,0.00,VWS V14.01,2013-02-24 09:55:00,
2013-02-24 00:56:00,-22.2,-26.9,29.42,NNW,335,0.0,0.0,78,0.00,,---,0.00,VWS V14.01,2013-02-24 09:56:00,
2013-02-24 00:58:00,-22.2,-26.9,29.42,NNW,335,0.0,0.0,78,0.00,,---,0.00,VWS V14.01,2013-02-24 09:58:00,
2013-02-24 00:59:00,-22.3,-27.0,29.42,NNW,335,0.0,0.0,78,0.00,,---,0.00,VWS V14.01,2013-02-24 09:59:00,
2013-02-24 01:00:00,-22.3,-27.0,29.42,NNW,335,0.0,0.0,78,0.00,,---,0.00,VWS V14.01,2013-02-24 10:00:00,
2013-02-24 01:02:00,-22.4,-27.3,29.42,NNW,335,0.0,0.0,77,0.00,,---,0.00,VWS V14.01,2013-02-24 10:02:00,
2013-02-24 01:03:00,-22.4,-27.3,29.42,NNW,335,0.0,0.0,77,0.00,,---,0.00,VWS V14.01,2013-02-24 10:03:00,
2013-02-24 01:04:00,-22.4,-27.3,29.42,NNW,335,0.0,0.0,77,0.00,,---,0.00,VWS V14.01,2013-02-24 10:04:00,
2013-02-24 01:05:00,-22.5,-27.4,29.42,NNW,335,0.0,0.0,77,0.00,,---,0.00,VWS V14.01,2013-02-24 10:05:00,
2013-02-24 01:07:00,-22.4,-27.3,29.42,NNW,335,0.0,0.0,77,0.00,,---,0.00,VWS V14.01,2013-02-24 10:07:00,
2013-02-24 01:08:00,-22.4,-27.3,29.42,NNW,335,0.0,0.0,77,0.00,,---,0.00,VWS V14.01,2013-02-24 10:08:00,
2013-02-24 01:09:00,-22.4,-27.3,29.42,NNW,335,0.0,0.0,77,0.00,,---,0.00,VWS V14.01,2013-02-24 10:09:00,
2013-02-24 01:10:00,-22.4,-27.3,29.42,NNW,335,0.0,0.0,77,0.00,,---,0.00,VWS V14.01,2013-02-24 10:10:00,
2013-02-24 01:11:00,-22.4,-27.1,29.42,NNW,335,0.0,0.0,78,0.00,,---,0.00,VWS V14.01,2013-02-24 10:11:00,
2013-02-24 01:12:00,-22.3,-27.0,29.42,NNW,335,0.0,0.0,78,0.00,,---,0.00,VWS V14.01,2013-02-24 10:12:00,
2013-02-24 01:13:00,-22.3,-27.0,29.42,NNW,335,0.0,0.0,78,0.00,,---,0.00,VWS V14.01,2013-02-24 10:13:00,
2013-02-24 01:14:00,-22.3,-27.0,29.42,NNW,335,0.0,0.0,78,0.00,,---,0.00,VWS V14.01,2013-02-24 10:14:00,
2013-02-24 01:15:00,-22.4,-27.1,29.42,NNW,335,0.0,0.0,78,0.00,,---,0.00,VWS V14.01,2013-02-24 10:15:00,
2013-02-24 01:16:00,-22.5,-27.1,29.42,NNW,335,0.0,0.0,78,0.00,,---,0.00,VWS V14.01,2013-02-24 10:16:00,
2013-02-24 01:17:00,-22.6,-27.2,29.42,NNW,335,0.0,0.0,78,0.00,,---,0.00,VWS V14.01,2013-02-24 10:17:00,
2013-02-24 01:18:00,-22.8,-27.7,29.42,NNW,335,0.0,0.0,77,0.00,,---,0.00,VWS V14.01,2013-02-24 10:18:00,
2013-02-24 01:19:00,-22.8,-27.7,29.42,NNW,335,0.0,0.0,77,0.00,,---,0.00,VWS V14.01,2013-02-24 10:19:00,
2013-02-24 01:20:00,-22.6,-27.2,29.42,NNW,335,0.0,0.0,78,0.00,,---,0.00,VWS V14.01,2013-02-24 10:20:00,
2013-02-24 01:21:00,-23.0,-27.9,29.42,NNW,335,0.0,0.0,77,0.00,,---,0.00,VWS V14.01,2013-02-24 10:21:00,
2013-02-24 01:22:00,-23.1,-28.2,29.42,NNW,335,0.0,0.0,76,0.00,,---,0.00,VWS V14.01,2013-02-24 10:22:00,
2013-02-24 01:23:00,-23.2,-28.3,29.42,NNW,335,0.0,0.0,76,0.00,,---,0.00,VWS V14.01,2013-02-24 10:23:00,
2013-02-24 01:25:00,-23.3,-28.4,29.42,NNW,335,0.0,0.0,76,0.00,,---,0.00,VWS V14.01,2013-02-24 10:25:00,
2013-02-24 01:26:00,-23.4,-28.5,29.42,NNW,335,0.0,0.0,76,0.00,,---,0.00,VWS V14.01,2013-02-24 10:26:00,
2013-02-24 01:27:00,-23.5,-28.6,29.42,NNW,335,0.0,0.0,76,0.00,,---,0.00,VWS V14.01,2013-02-24 10:27:00,
2013-02-24 01:29:00,-23.7,-28.8,29.42,NNW,335,0.0,0.0,76,0.00,,---,0.00,VWS V14.01,2013-02-24 10:29:00,
2013-02-24 01:30:00,-23.7,-28.8,29.42,NNW,335,0.0,0.0,76,0.00,,---,0.00,VWS V14.01,2013-02-24 10:30:00,
2013-02-24 01:31:00,-23.9,-29.0,29.42,NNW,335,0.0,0.0,76,0.00,,---,0.00,VWS V14.01,2013-02-24 10:31:00,
2013-02-24 01:32:00,-23.9,-29.0,29.42,NNW,335,0.0,0.0,76,0.00,,---,0.00,VWS V14.01,2013-02-24 10:32:00,
2013-02-24 01:34:00,-24.1,-29.2,29.42,NNW,335,0.0,0.0,76,0.00,,---,0.00,VWS V14.01,2013-02-24 10:34:00,
2013-02-24 01:35:00,-24.1,-29.2,29.42,NNW,335,0.0,0.0,76,0.00,,---,0.00,VWS V14.01,2013-02-24 10:35:00,
2013-02-24 01:36:00,-24.1,-29.2,29.42,NNW,335,0.0,0.0,76,0.00,,---,0.00,VWS V14.01,2013-02-24 10:36:00,
2013-02-24 01:38:00,-24.2,-29.3,29.42,NNW,335,0.0,0.0,76,0.00,,---,0.00,VWS V14.01,2013-02-24 10:38:00,
2013-02-24 01:39:00,-24.1,-29.2,29.42,NNW,335,0.0,0.0,76,0.00,,---,0.00,VWS V14.01,2013-02-24 10:39:00,
2013-02-24 01:40:00,-24.1,-29.2,29.42,NNW,335,0.0,0.0,76,0.00,,---,0.00,VWS V14.01,2013-02-24 10:40:00,
2013-02-24 01:41:00,-24.1,-29.0,29.42,NNW,335,0.0,0.0,77,0.00,,---,0.00,VWS V14.01,2013-02-24 10:41:00,
2013-02-24 01:43:00,-24.1,-29.0,29.42,NNW,335,0.0,0.0,77,0.00,,---,0.00,VWS V14.01,2013-02-24 10:43:00,
2013-02-24 01:45:00,-24.1,-29.0,29.43,NNW,335,0.0,0.0,77,0.00,,---,0.00,VWS V14.01,2013-02-24 10:45:00,
2013-02-24 01:46:00,-24.1,-29.0,29.43,NNW,335,0.0,0.0,77,0.00,,---,0.00,VWS V14.01,2013-02-24 10:46:00,
2013-02-24 01:48:00,-24.1,-29.0,29.42,NNW,335,0.0,0.0,77,0.00,,---,0.00,VWS V14.01,2013-02-24 10:48:00,
2013-02-24 01:50:00,-24.1,-29.0,29.42,NNW,335,1.0,1.0,77,0.00,,---,0.00,VWS V14.01,2013-02-24 10:50:00,
2013-02-24 01:51:00,-24.0,-28.9,29.42,NNW,335,1.0,2.0,77,0.00,,---,0.00,VWS V14.01,2013-02-24 10:51:00,
2013-02-24 01:54:00,-23.8,-28.4,29.42,NNW,335,1.0,2.0,78,0.00,,---,0.00,VWS V14.01,2013-02-24 10:54:00,
2013-02-24 01:55:00,-23.6,-28.2,29.42,NNW,335,0.0,2.0,78,0.00,,---,0.00,VWS V14.01,2013-02-24 10:55:00,
2013-02-24 01:57:00,-23.5,-28.1,29.42,NNW,335,0.0,2.0,78,0.00,,---,0.00,VWS V14.01,2013-02-24 10:57:00,
2013-02-24 01:59:00,-23.4,-27.8,29.42,NNW,335,0.0,0.0,79,0.00,,---,0.00,VWS V14.01,2013-02-24 10:59:00,
2013-02-24 02:00:00,-23.3,-27.7,29.42,NNW,335,0.0,0.0,79,0.00,,---,0.00,VWS V14.01,2013-02-24 11:00:00,
2013-02-24 02:02:00,-23.3,-27.9,29.42,NNW,335,0.0,0.0,78,0.00,,---,0.00,VWS V14.01,2013-02-24 11:02:00,
2013-02-24 02:04:00,-23.3,-27.9,29.43,NNW,335,0.0,0.0,78,0.00,,---,0.00,VWS V14.01,2013-02-24 11:04:00,
2013-02-24 02:05:00,-23.3,-27.9,29.43,NNW,335,0.0,0.0,78,0.00,,---,0.00,VWS V14.01,2013-02-24 11:05:00,
2013-02-24 02:06:00,-23.4,-28.0,29.43,NNW,335,0.0,0.0,78,0.00,,---,0.00,VWS V14.01,2013-02-24 11:06:00,
2013-02-24 02:07:00,-23.4,-28.0,29.43,NNW,335,0.0,0.0,78,0.00,,---,0.00,VWS V14.01,2013-02-24 11:07:00,
2013-02-24 02:09:00,-23.5,-28.1,29.43,NNW,335,0.0,0.0,78,0.00,,---,0.00,VWS V14.01,2013-02-24 11:09:00,
2013-02-24 02:10:00,-23.5,-28.1,29.43,NNW,335,0.0,0.0,78,0.00,,---,0.00,VWS V14.01,2013-02-24 11:10:00,
2013-02-24 02:11:00,-23.5,-28.1,29.43,NNW,335,0.0,0.0,78,0.00,,---,0.00,VWS V14.01,2013-02-24 11:11:00,
2013-02-24 02:13:00,-23.5,-28.1,29.43,NNW,335,0.0,0.0,78,0.00,,---,0.00,VWS V14.01,2013-02-24 11:13:00,
2013-02-24 02:14:00,-23.5,-28.1,29.43,NNW,335,0.0,0.0,78,0.00,,---,0.00,VWS V14.01,2013-02-24 11:14:00,
2013-02-24 02:15:00,-23.6,-28.2,29.43,NNW,335,0.0,0.0,78,0.00,,---,0.00,VWS V14.01,2013-02-24 11:15:00,
2013-02-24 02:17:00,-23.6,-28.2,29.43,NNW,335,0.0,0.0,78,0.00,,---,0.00,VWS V14.01,2013-02-24 11:17:00,
2013-02-24 02:18:00,-23.7,-28.3,29.43,NNW,335,0.0,0.0,78,0.00,,---,0.00,VWS V14.01,2013-02-24 11:18:00,
2013-02-24 02:20:00,-23.7,-28.3,29.43,NNW,335,0.0,0.0,78,0.00,,---,0.00,VWS V14.01,2013-02-24 11:20:00,
2013-02-24 02:22:00,-23.7,-28.3,29.43,NNW,335,0.0,0.0,78,0.00,,---,0.00,VWS V14.01,2013-02-24 11:22:00,
2013-02-24 02:23:00,-23.8,-28.4,29.43,NNW,335,0.0,0.0,78,0.00,,---,0.00,VWS V14.01,2013-02-24 11:23:00,
2013-02-24 02:25:00,-23.8,-28.4,29.43,NNW,335,0.0,0.0,78,0.00,,---,0.00,VWS V14.01,2013-02-24 11:25:00,
2013-02-24 02:26:00,-23.8,-28.4,29.43,NNW,335,0.0,0.0,78,0.00,,---,0.00,VWS V14.01,2013-02-24 11:26:00,
2013-02-24 02:27:00,-23.8,-28.4,29.43,NNW,335,0.0,0.0,78,0.00,,---,0.00,VWS V14.01,2013-02-24 11:27:00,
2013-02-24 02:28:00,-23.9,-28.5,29.43,NNW,335,0.0,0.0,78,0.00,,---,0.00,VWS V14.01,2013-02-24 11:28:00,
2013-02-24 02:30:00,-23.9,-28.5,29.43,NNW,335,0.0,0.0,78,0.00,,---,0.00,VWS V14.01,2013-02-24 11:30:00,
2013-02-24 02:31:00,-23.9,-28.8,29.43,NNW,335,0.0,0.0,77,0.00,,---,0.00,VWS V14.01,2013-02-24 11:31:00,
2013-02-24 02:32:00,-24.0,-28.9,29.43,NNW,335,0.0,0.0,77,0.00,,---,0.00,VWS V14.01,2013-02-24 11:32:00,
2013-02-24 02:33:00,-24.0,-28.9,29.43,NNW,335,0.0,0.0,77,0.00,,---,0.00,VWS V14.01,2013-02-24 11:33:00,
2013-02-24 02:35:00,-24.0,-28.9,29.43,NNW,335,2.0,2.0,77,0.00,,---,0.00,VWS V14.01,2013-02-24 11:35:00,
2013-02-24 02:36:00,-24.0,-28.9,29.43,NNW,335,2.0,2.0,77,0.00,,---,0.00,VWS V14.01,2013-02-24 11:36:00,
2013-02-24 02:37:00,-24.0,-28.6,29.43,NNW,335,1.0,2.0,78,0.00,,---,0.00,VWS V14.01,2013-02-24 11:37:00,
2013-02-24 02:38:00,-23.9,-28.5,29.44,NNW,335,1.0,3.0,78,0.00,,---,0.00,VWS V14.01,2013-02-24 11:38:00,
2013-02-24 02:40:00,-23.9,-28.5,29.43,NNW,335,0.0,3.0,78,0.00,,---,0.00,VWS V14.01,2013-02-24 11:40:00,
2013-02-24 02:42:00,-23.9,-28.5,29.44,NNW,335,0.0,3.0,78,0.00,,---,0.00,VWS V14.01,2013-02-24 11:42:00,
2013-02-24 02:43:00,-23.8,-28.4,29.44,NNW,335,0.0,0.0,78,0.00,,---,0.00,VWS V14.01,2013-02-24 11:43:00,
2013-02-24 02:45:00,-23.9,-28.5,29.44,NNW,335,0.0,3.0,78,0.00,,---,0.00,VWS V14.01,2013-02-24 11:45:00,
2013-02-24 02:46:00,-23.8,-28.4,29.44,NNW,335,0.0,0.0,78,0.00,,---,0.00,VWS V14.01,2013-02-24 11:46:00,
2013-02-24 02:47:00,-23.8,-28.4,29.44,NNW,335,0.0,0.0,78,0.00,,---,0.00,VWS V14.01,2013-02-24 11:47:00,
2013-02-24 02:48:00,-23.7,-28.3,29.44,NNW,335,0.0,0.0,78,0.00,,---,0.00,VWS V14.01,2013-02-24 11:48:00,
2013-02-24 02:50:00,-23.8,-28.4,29.44,NNW,335,0.0,0.0,78,0.00,,---,0.00,VWS V14.01,2013-02-24 11:50:00,
2013-02-24 02:51:00,-23.7,-28.3,29.44,NNW,335,0.0,0.0,78,0.00,,---,0.00,VWS V14.01,2013-02-24 11:51:00,
2013-02-24 02:52:00,-23.7,-28.3,29.44,NNW,335,0.0,0.0,78,0.00,,---,0.00,VWS V14.01,2013-02-24 11:52:00,
2013-02-24 02:53:00,-23.7,-28.3,29.44,NNW,335,2.0,2.0,78,0.00,,---,0.00,VWS V14.01,2013-02-24 11:53:00,
2013-02-24 02:54:00,-23.6,-28.2,29.44,NNW,335,0.0,2.0,78,0.00,,---,0.00,VWS V14.01,2013-02-24 11:54:00,
2013-02-24 02:55:00,-23.7,-28.3,29.44,NNW,335,0.0,0.0,78,0.00,,---,0.00,VWS V14.01,2013-02-24 11:55:00,
2013-02-24 02:56:00,-23.5,-28.1,29.44,NNW,335,0.0,2.0,78,0.00,,---,0.00,VWS V14.01,2013-02-24 11:56:00,
2013-02-24 02:57:00,-23.5,-28.1,29.44,NNW,335,0.0,0.0,78,0.00,,---,0.00,VWS V14.01,2013-02-24 11:57:00,
2013-02-24 02:58:00,-23.5,-28.1,29.44,NNW,335,0.0,0.0,78,0.00,,---,0.00,VWS V14.01,2013-02-24 11:58:00,
2013-02-24 02:59:00,-23.4,-28.0,29.43,NNW,335,0.0,0.0,78,0.00,,---,0.00,VWS V14.01,2013-02-24 11:59:00,
2013-02-24 03:00:00,-23.5,-28.1,29.44,NNW,335,0.0,2.0,78,0.00,,---,0.00,VWS V14.01,2013-02-24 12:00:00,
2013-02-24 03:01:00,-23.4,-28.0,29.44,NNW,335,0.0,0.0,78,0.00,,---,0.00,VWS V14.01,2013-02-24 12:01:00,
2013-02-24 03:02:00,-23.3,-27.9,29.44,NNW,335,0.0,0.0,78,0.00,,---,0.00,VWS V14.01,2013-02-24 12:02:00,
2013-02-24 03:03:00,-23.3,-27.9,29.44,NNW,335,0.0,0.0,78,0.00,,---,0.00,VWS V14.01,2013-02-24 12:03:00,
2013-02-24 03:04:00,-23.3,-27.9,29.44,NNW,335,0.0,0.0,78,0.00,,---,0.00,VWS V14.01,2013-02-24 12:04:00,
2013-02-24 03:05:00,-23.4,-28.0,29.44,NNW,335,0.0,0.0,78,0.00,,---,0.00,VWS V14.01,2013-02-24 12:05:00,
2013-02-24 03:07:00,-23.3,-27.9,29.44,NNW,335,0.0,0.0,78,0.00,,---,0.00,VWS V14.01,2013-02-24 12:07:00,
2013-02-24 03:08:00,-23.2,-27.8,29.44,NNW,335,0.0,0.0,78,0.00,,---,0.00,VWS V14.01,2013-02-24 12:08:00,
2013-02-24 03:09:00,-23.2,-27.8,29.44,NNW,335,0.0,0.0,78,0.00,,---,0.00,VWS V14.01,2013-02-24 12:09:00,
2013-02-24 03:10:00,-23.3,-27.9,29.44,NNW,335,0.0,0.0,78,0.00,,---,0.00,VWS V14.01,2013-02-24 12:10:00,
2013-02-24 03:12:00,-23.0,-27.4,29.44,NNW,335,0.0,0.0,79,0.00,,---,0.00,VWS V14.01,2013-02-24 12:12:00,
2013-02-24 03:13:00,-22.9,-27.3,29.44,NNW,335,0.0,0.0,79,0.00,,---,0.00,VWS V14.01,2013-02-24 12:13:00,
2013-02-24 03:14:00,-22.8,-27.2,29.44,NNW,335,0.0,0.0,79,0.00,,---,0.00,VWS V14.01,2013-02-24 12:14:00,
2013-02-24 03:15:00,-23.0,-27.4,29.44,NNW,335,0.0,0.0,79,0.00,,---,0.00,VWS V14.01,2013-02-24 12:15:00,
2013-02-24 03:17:00,-22.5,-26.9,29.44,NNW,335,0.0,0.0,79,0.00,,---,0.00,VWS V14.01,2013-02-24 12:17:00,
2013-02-24 03:19:00,-22.4,-26.8,29.44,NNW,335,0.0,0.0,79,0.00,,---,0.00,VWS V14.01,2013-02-24 12:19:00,
2013-02-24 03:20:00,-22.6,-27.0,29.44,NNW,335,0.0,0.0,79,0.00,,---,0.00,VWS V14.01,2013-02-24 12:20:00,
2013-02-24 03:22:00,-22.3,-26.7,29.44,NNW,335,1.0,1.0,79,0.00,,---,0.00,VWS V14.01,2013-02-24 12:22:00,
2013-02-24 03:23:00,-22.3,-26.7,29.44,NNW,335,2.0,2.0,79,0.00,,---,0.00,VWS V14.01,2013-02-24 12:23:00,
2013-02-24 03:24:00,-22.4,-26.8,29.44,NNW,335,1.0,2.0,79,0.00,,---,0.00,VWS V14.01,2013-02-24 12:24:00,
2013-02-24 03:25:00,-22.3,-26.7,29.44,NNW,335,1.0,2.0,79,0.00,,---,0.00,VWS V14.01,2013-02-24 12:25:00,
2013-02-24 03:27:00,-22.5,-27.1,29.44,NNW,335,2.0,2.0,78,0.00,,---,0.00,VWS V14.01,2013-02-24 12:27:00,
2013-02-24 03:28:00,-22.5,-27.1,29.44,NNW,335,0.0,2.0,78,0.00,,---,0.00,VWS V14.01,2013-02-24 12:28:00,
2013-02-24 03:29:00,-22.6,-27.2,29.44,NNW,335,1.0,2.0,78,0.00,,---,0.00,VWS V14.01,2013-02-24 12:29:00,
2013-02-24 03:30:00,-22.6,-27.2,29.44,NNW,335,1.0,2.0,78,0.00,,---,0.00,VWS V14.01,2013-02-24 12:30:00,
2013-02-24 03:32:00,-22.6,-27.2,29.45,NNW,335,1.0,2.0,78,0.00,,---,0.00,VWS V14.01,2013-02-24 12:32:00,
2013-02-24 03:33:00,-22.6,-27.2,29.45,NNW,335,0.0,2.0,78,0.00,,---,0.00,VWS V14.01,2013-02-24 12:33:00,
2013-02-24 03:34:00,-22.5,-27.1,29.45,NNW,335,0.0,2.0,78,0.00,,---,0.00,VWS V14.01,2013-02-24 12:34:00,
2013-02-24 03:35:00,-22.5,-27.1,29.45,NNW,335,0.0,2.0,78,0.00,,---,0.00,VWS V14.01,2013-02-24 12:35:00,
2013-02-24 03:38:00,-22.3,-26.7,29.45,NNW,335,2.0,2.0,79,0.00,,---,0.00,VWS V14.01,2013-02-24 12:38:00,
2013-02-24 03:39:00,-22.1,-26.5,29.45,NNW,335,0.0,2.0,79,0.00,,---,0.00,VWS V14.01,2013-02-24 12:39:00,
2013-02-24 03:40:00,-22.1,-26.5,29.45,NNW,335,1.0,2.0,79,0.00,,---,0.00,VWS V14.01,2013-02-24 12:40:00,
2013-02-24 03:43:00,-21.9,-26.3,29.45,NNW,335,0.0,2.0,79,0.00,,---,0.00,VWS V14.01,2013-02-24 12:43:00,
2013-02-24 03:45:00,-21.9,-26.3,29.45,NNW,335,0.0,2.0,79,0.00,,---,0.00,VWS V14.01,2013-02-24 12:45:00,
2013-02-24 03:48:00,-21.8,-26.2,29.45,NNW,335,0.0,1.0,79,0.00,,---,0.00,VWS V14.01,2013-02-24 12:48:00,
2013-02-24 03:49:00,-21.9,-26.3,29.45,NNW,335,0.0,1.0,79,0.00,,---,0.00,VWS V14.01,2013-02-24 12:49:00,
2013-02-24 03:50:00,-21.9,-26.6,29.45,NNW,335,0.0,1.0,78,0.00,,---,0.00,VWS V14.01,2013-02-24 12:50:00,
2013-02-24 03:51:00,-21.9,-26.6,29.45,NNW,335,1.0,1.0,78,0.00,,---,0.00,VWS V14.01,2013-02-24 12:51:00,
2013-02-24 03:53:00,-22.1,-26.8,29.45,NNW,335,0.0,1.0,78,0.00,,---,0.00,VWS V14.01,2013-02-24 12:53:00,
2013-02-24 03:54:00,-22.1,-26.8,29.45,NNW,335,0.0,1.0,78,0.00,,---,0.00,VWS V14.01,2013-02-24 12:54:00,
2013-02-24 03:55:00,-22.2,-26.9,29.45,NNW,335,0.0,1.0,78,0.00,,---,0.00,VWS V14.01,2013-02-24 12:55:00,
2013-02-24 03:56:00,-22.3,-27.0,29.45,NNW,335,0.0,1.0,78,0.00,,---,0.00,VWS V14.01,2013-02-24 12:56:00,
2013-02-24 03:59:00,-22.5,-27.4,29.45,NNW,335,0.0,1.0,77,0.00,,---,0.00,VWS V14.01,2013-02-24 12:59:00,
2013-02-24 04:00:00,-22.6,-27.5,29.45,NNW,335,0.0,1.0,77,0.00,,---,0.00,VWS V14.01,2013-02-24 13:00:00,
2013-02-24 04:01:00,-22.6,-27.5,29.45,NNW,335,0.0,1.0,77,0.00,,---,0.00,VWS V14.01,2013-02-24 13:01:00,
2013-02-24 04:04:00,-22.9,-27.8,29.45,NNW,335,0.0,0.0,77,0.00,,---,0.00,VWS V14.01,2013-02-24 13:04:00,
2013-02-24 04:05:00,-22.9,-27.8,29.45,NNW,335,0.0,0.0,77,0.00,,---,0.00,VWS V14.01,2013-02-24 13:05:00,
2013-02-24 04:06:00,-23.0,-27.9,29.45,NNW,335,1.0,1.0,77,0.00,,---,0.00,VWS V14.01,2013-02-24 13:06:00,
2013-02-24 04:09:00,-23.2,-28.1,29.45,NNW,335,0.0,2.0,77,0.00,,---,0.00,VWS V14.01,2013-02-24 13:09:00,
2013-02-24 04:10:00,-23.2,-28.1,29.45,NNW,335,1.0,3.0,77,0.00,,---,0.00,VWS V14.01,2013-02-24 13:10:00,
2013-02-24 04:11:00,-23.3,-28.2,29.45,NNW,335,1.0,3.0,77,0.00,,---,0.00,VWS V14.01,2013-02-24 13:11:00,
2013-02-24 04:14:00,-23.1,-28.0,29.45,NNW,335,1.0,2.0,77,0.00,,---,0.00,VWS V14.01,2013-02-24 13:14:00,
2013-02-24 04:15:00,-23.1,-28.0,29.46,NNW,335,1.0,2.0,77,0.00,,---,0.00,VWS V14.01,2013-02-24 13:15:00,
2013-02-24 04:16:00,-23.1,-28.5,29.45,North,355,1.0,2.0,75,0.00,,---,0.00,VWS V14.01,2013-02-24 13:16:00,
2013-02-24 04:19:00,-25.5,-31.0,29.46,North,360,1.0,2.0,74,0.00,,---,0.00,VWS V14.01,2013-02-24 13:19:00,
2013-02-24 04:20:00,-25.4,-30.9,29.46,North,360,1.0,2.0,74,0.00,,---,0.00,VWS V14.01,2013-02-24 13:20:00,
2013-02-24 04:21:00,-25.4,-30.9,29.46,North,360,2.0,2.0,74,0.00,,---,0.00,VWS V14.01,2013-02-24 13:21:00,
2013-02-24 04:24:00,-23.2,-27.8,29.46,NNW,335,1.0,2.0,78,0.00,,---,0.00,VWS V14.01,2013-02-24 13:24:00,
2013-02-24 04:25:00,-23.3,-27.9,29.46,NNW,335,0.0,2.0,78,0.00,,---,0.00,VWS V14.01,2013-02-24 13:25:00,
2013-02-24 04:26:00,-23.4,-28.3,29.46,NNW,335,0.0,2.0,77,0.00,,---,0.00,VWS V14.01,2013-02-24 13:26:00,
2013-02-24 04:30:00,-23.9,-28.8,29.46,NNW,335,0.0,0.0,77,0.00,,---,0.00,VWS V14.01,2013-02-24 13:30:00,
2013-02-24 04:31:00,-24.1,-29.2,29.46,NNW,335,0.0,0.0,76,0.00,,---,0.00,VWS V14.01,2013-02-24 13:31:00,
2013-02-24 04:35:00,-24.6,-29.7,29.46,NNW,335,0.0,0.0,76,0.00,,---,0.00,VWS V14.01,2013-02-24 13:35:00,
2013-02-24 04:36:00,-24.7,-29.8,29.46,NNW,335,0.0,0.0,76,0.00,,---,0.00,VWS V14.01,2013-02-24 13:36:00,
2013-02-24 04:40:00,-25.1,-30.2,29.46,NNW,335,0.0,0.0,76,0.00,,---,0.00,VWS V14.01,2013-02-24 13:40:00,
2013-02-24 04:41:00,-25.2,-30.3,29.46,NNW,335,0.0,0.0,76,0.00,,---,0.00,VWS V14.01,2013-02-24 13:41:00,
2013-02-24 04:45:00,-25.2,-30.0,29.46,NNW,335,0.0,2.0,77,0.00,,---,0.00,VWS V14.01,2013-02-24 13:45:00,
2013-02-24 04:46:00,-25.2,-30.0,29.46,NNW,335,0.0,2.0,77,0.00,,---,0.00,VWS V14.01,2013-02-24 13:46:00,
2013-02-24 04:50:00,-25.1,-29.9,29.46,NNW,335,0.0,0.0,77,0.00,,---,0.00,VWS V14.01,2013-02-24 13:50:00,
2013-02-24 04:51:00,-25.1,-29.9,29.46,NNW,335,0.0,0.0,77,0.00,,---,0.00,VWS V14.01,2013-02-24 13:51:00,
2013-02-24 04:55:00,-25.0,-29.8,29.46,NNW,335,0.0,0.0,77,0.00,,---,0.00,VWS V14.01,2013-02-24 13:55:00,
2013-02-24 04:56:00,-24.8,-29.4,29.46,NNW,335,0.0,0.0,78,0.00,,---,0.00,VWS V14.01,2013-02-24 13:56:00,
2013-02-24 05:00:00,-24.7,-29.3,29.46,NNW,335,0.0,0.0,78,0.00,,---,0.00,VWS V14.01,2013-02-24 14:00:00,
2013-02-24 05:01:00,-24.5,-26.1,29.46,NNW,335,0.0,1.0,92,0.00,,---,0.00,VWS V14.01,2013-02-24 14:01:00,
2013-02-24 05:02:00,-24.4,-29.0,29.46,NNW,335,0.0,0.0,78,0.00,,---,0.00,VWS V14.01,2013-02-24 14:02:00,
2013-02-24 05:05:00,-24.4,-29.0,29.46,NNW,335,0.0,1.0,78,0.00,,---,0.00,VWS V14.01,2013-02-24 14:05:00,
2013-02-24 05:06:00,-24.3,-28.9,29.46,NNW,335,1.0,2.0,78,0.00,,---,0.00,VWS V14.01,2013-02-24 14:06:00,
2013-02-24 05:07:00,-24.2,-28.8,29.46,NNW,335,2.0,2.0,78,0.00,,---,0.00,VWS V14.01,2013-02-24 14:07:00,
2013-02-24 05:10:00,-24.2,-28.8,29.46,NNW,335,2.0,2.0,78,0.00,,---,0.00,VWS V14.01,2013-02-24 14:10:00,
2013-02-24 05:11:00,-23.8,-28.2,29.46,NNW,335,0.0,2.0,79,0.00,,---,0.00,VWS V14.01,2013-02-24 14:11:00,
2013-02-24 05:12:00,-23.8,-28.2,29.46,NNW,335,0.0,0.0,79,0.00,,---,0.00,VWS V14.01,2013-02-24 14:12:00,
2013-02-24 05:15:00,-23.8,-28.2,29.46,NNW,335,0.0,2.0,79,0.00,,---,0.00,VWS V14.01,2013-02-24 14:15:00,
2013-02-24 05:16:00,-23.6,-28.0,29.46,NNW,335,0.0,0.0,79,0.00,,---,0.00,VWS V14.01,2013-02-24 14:16:00,
2013-02-24 05:17:00,-23.6,-28.0,29.46,NNW,335,0.0,0.0,79,0.00,,---,0.00,VWS V14.01,2013-02-24 14:17:00,
2013-02-24 05:20:00,-23.6,-28.0,29.46,NNW,335,0.0,0.0,79,0.00,,---,0.00,VWS V14.01,2013-02-24 14:20:00,
2013-02-24 05:21:00,-23.5,-28.1,29.46,NNW,335,0.0,0.0,78,0.00,,---,0.00,VWS V14.01,2013-02-24 14:21:00,
2013-02-24 05:22:00,-23.5,-28.1,29.46,NNW,335,0.0,0.0,78,0.00,,---,0.00,VWS V14.01,2013-02-24 14:22:00,
2013-02-24 05:25:00,-23.5,-28.1,29.46,NNW,335,0.0,0.0,78,0.00,,---,0.00,VWS V14.01,2013-02-24 14:25:00,
2013-02-24 05:26:00,-23.5,-28.1,29.46,NNW,335,0.0,0.0,78,0.00,,---,0.00,VWS V14.01,2013-02-24 14:26:00,
2013-02-24 05:27:00,-23.5,-28.1,29.47,NNW,335,0.0,0.0,78,0.00,,---,0.00,VWS V14.01,2013-02-24 14:27:00,
2013-02-24 05:30:00,-23.5,-28.1,29.47,NNW,335,0.0,0.0,78,0.00,,---,0.00,VWS V14.01,2013-02-24 14:30:00,
2013-02-24 05:31:00,-23.8,-28.4,29.47,NNW,335,0.0,0.0,78,0.00,,---,0.00,VWS V14.01,2013-02-24 14:31:00,
2013-02-24 05:32:00,-23.8,-28.4,29.47,NNW,335,0.0,0.0,78,0.00,,---,0.00,VWS V14.01,2013-02-24 14:32:00,
2013-02-24 05:33:00,-23.8,-28.4,29.47,NNW,335,0.0,0.0,78,0.00,,---,0.00,VWS V14.01,2013-02-24 14:33:00,
2013-02-24 05:35:00,-23.7,-28.3,29.47,NNW,335,0.0,0.0,78,0.00,,---,0.00,VWS V14.01,2013-02-24 14:35:00,
2013-02-24 05:36:00,-23.9,-28.8,29.47,NNW,335,0.0,0.0,77,0.00,,---,0.00,VWS V14.01,2013-02-24 14:36:00,
2013-02-24 05:37:00,-24.0,-28.9,29.47,NNW,335,0.0,0.0,77,0.00,,---,0.00,VWS V14.01,2013-02-24 14:37:00,
2013-02-24 05:38:00,-24.0,-28.9,29.47,NNW,335,0.0,0.0,77,0.00,,---,0.00,VWS V14.01,2013-02-24 14:38:00,
2013-02-24 05:40:00,-23.9,-28.8,29.47,NNW,335,0.0,0.0,77,0.00,,---,0.00,VWS V14.01,2013-02-24 14:40:00,
2013-02-24 05:42:00,-24.3,-29.1,29.47,NNW,335,0.0,0.0,77,0.00,,---,0.00,VWS V14.01,2013-02-24 14:42:00,
2013-02-24 05:43:00,-24.3,-29.1,29.47,NNW,335,0.0,0.0,77,0.00,,---,0.00,VWS V14.01,2013-02-24 14:43:00,
2013-02-24 05:45:00,-24.3,-29.1,29.47,NNW,335,0.0,0.0,77,0.00,,---,0.00,VWS V14.01,2013-02-24 14:45:00,
2013-02-24 05:47:00,-24.4,-29.2,29.47,NNW,335,0.0,0.0,77,0.00,,---,0.00,VWS V14.01,2013-02-24 14:47:00,
2013-02-24 05:48:00,-24.5,-29.3,29.47,NNW,335,0.0,0.0,77,0.00,,---,0.00,VWS V14.01,2013-02-24 14:48:00,
2013-02-24 05:49:00,-24.5,-29.3,29.47,NNW,335,0.0,0.0,77,0.00,,---,0.00,VWS V14.01,2013-02-24 14:49:00,
2013-02-24 05:50:00,-24.4,-29.2,29.47,NNW,335,0.0,0.0,77,0.00,,---,0.00,VWS V14.01,2013-02-24 14:50:00,
2013-02-24 05:52:00,-24.5,-29.3,29.47,NNW,335,0.0,0.0,77,0.00,,---,0.00,VWS V14.01,2013-02-24 14:52:00,
2013-02-24 05:53:00,-24.5,-29.3,29.47,NNW,335,0.0,0.0,77,0.00,,---,0.00,VWS V14.01,2013-02-24 14:53:00,
2013-02-24 05:54:00,-24.5,-29.3,29.47,NNW,335,0.0,0.0,77,0.00,,---,0.00,VWS V14.01,2013-02-24 14:54:00,
2013-02-24 05:55:00,-24.5,-29.3,29.47,NNW,335,0.0,0.0,77,0.00,,---,0.00,VWS V14.01,2013-02-24 14:55:00,
2013-02-24 05:57:00,-24.4,-29.0,29.48,NNW,335,0.0,0.0,78,0.00,,---,0.00,VWS V14.01,2013-02-24 14:57:00,
2013-02-24 05:58:00,-24.3,-28.9,29.48,NNW,335,0.0,0.0,78,0.00,,---,0.00,VWS V14.01,2013-02-24 14:58:00,
2013-02-24 05:59:00,-24.3,-28.9,29.48,NNW,335,0.0,0.0,78,0.00,,---,0.00,VWS V14.01,2013-02-24 14:59:00,
2013-02-24 06:00:00,-24.4,-29.2,29.48,NNW,335,0.0,0.0,77,0.00,,---,0.00,VWS V14.01,2013-02-24 15:00:00,
2013-02-24 06:03:00,-24.1,-28.7,29.48,NNW,335,0.0,0.0,78,0.00,,---,0.00,VWS V14.01,2013-02-24 15:03:00,
2013-02-24 06:04:00,-24.1,-28.7,29.48,NNW,335,0.0,0.0,78,0.00,,---,0.00,VWS V14.01,2013-02-24 15:04:00,
2013-02-24 06:05:00,-24.1,-28.7,29.48,NNW,335,0.0,0.0,78,0.00,,---,0.00,VWS V14.01,2013-02-24 15:05:00,
2013-02-24 06:08:00,-23.9,-28.5,29.48,NNW,335,0.0,0.0,78,0.00,,---,0.00,VWS V14.01,2013-02-24 15:08:00,
2013-02-24 06:09:00,-23.9,-28.5,29.48,NNW,335,0.0,0.0,78,0.00,,---,0.00,VWS V14.01,2013-02-24 15:09:00,
2013-02-24 06:10:00,-23.9,-28.5,29.48,NNW,335,0.0,0.0,78,0.00,,---,0.00,VWS V14.01,2013-02-24 15:10:00,
2013-02-24 06:13:00,-23.9,-28.5,29.48,NNW,335,0.0,0.0,78,0.00,,---,0.00,VWS V14.01,2013-02-24 15:13:00,
2013-02-24 06:14:00,-23.9,-28.5,29.48,NNW,335,0.0,0.0,78,0.00,,---,0.00,VWS V14.01,2013-02-24 15:14:00,
2013-02-24 06:15:00,-23.9,-28.5,29.49,NNW,335,0.0,0.0,78,0.00,,---,0.00,VWS V14.01,2013-02-24 15:15:00,
2013-02-24 06:18:00,-23.9,-28.5,29.48,NNW,335,0.0,0.0,78,0.00,,---,0.00,VWS V14.01,2013-02-24 15:18:00,
2013-02-24 06:19:00,-23.9,-28.5,29.49,NNW,335,0.0,0.0,78,0.00,,---,0.00,VWS V14.01,2013-02-24 15:19:00,
2013-02-24 06:20:00,-23.9,-28.5,29.49,NNW,335,0.0,0.0,78,0.00,,---,0.00,VWS V14.01,2013-02-24 15:20:00,
2013-02-24 06:21:00,-23.9,-28.5,29.49,NNW,335,0.0,0.0,78,0.00,,---,0.00,VWS V14.01,2013-02-24 15:21:00,
2013-02-24 06:23:00,-23.8,-28.4,29.49,NNW,335,0.0,0.0,78,0.00,,---,0.00,VWS V14.01,2013-02-24 15:23:00,
2013-02-24 06:24:00,-23.7,-28.3,29.49,NNW,335,0.0,0.0,78,0.00,,---,0.00,VWS V14.01,2013-02-24 15:24:00,
2013-02-24 06:25:00,-23.9,-28.5,29.49,NNW,335,0.0,0.0,78,0.00,,---,0.00,VWS V14.01,2013-02-24 15:25:00,
2013-02-24 06:26:00,-23.6,-28.2,29.49,NNW,335,0.0,0.0,78,0.00,,---,0.00,VWS V14.01,2013-02-24 15:26:00,
2013-02-24 06:28:00,-23.5,-28.1,29.49,NNW,335,0.0,0.0,78,0.00,,---,0.00,VWS V14.01,2013-02-24 15:28:00,
2013-02-24 06:29:00,-23.5,-28.1,29.49,NNW,335,0.0,0.0,78,0.00,,---,0.00,VWS V14.01,2013-02-24 15:29:00,
2013-02-24 06:30:00,-23.5,-28.1,29.49,NNW,335,0.0,0.0,78,0.00,,---,0.00,VWS V14.01,2013-02-24 15:30:00,
2013-02-24 06:31:00,-23.5,-28.1,29.49,NNW,335,0.0,0.0,78,0.00,,---,0.00,VWS V14.01,2013-02-24 15:31:00,
2013-02-24 06:33:00,-23.4,-28.0,29.49,NNW,335,0.0,0.0,78,0.00,,---,0.00,VWS V14.01,2013-02-24 15:33:00,
2013-02-24 06:35:00,-23.4,-28.0,29.49,NNW,335,0.0,0.0,78,0.00,,---,0.00,VWS V14.01,2013-02-24 15:35:00,
2013-02-24 06:36:00,-23.4,-28.0,29.49,NNW,335,0.0,0.0,78,0.00,,---,0.00,VWS V14.01,2013-02-24 15:36:00,
2013-02-24 06:38:00,-23.4,-28.0,29.49,NNW,335,0.0,0.0,78,0.00,,---,0.00,VWS V14.01,2013-02-24 15:38:00,
2013-02-24 06:40:00,-23.4,-28.0,29.49,NNW,335,0.0,0.0,78,0.00,,---,0.00,VWS V14.01,2013-02-24 15:40:00,
2013-02-24 06:41:00,-23.4,-28.0,29.49,NNW,335,0.0,0.0,78,0.00,,---,0.00,VWS V14.01,2013-02-24 15:41:00,
2013-02-24 06:42:00,-23.4,-28.0,29.49,NNW,335,0.0,0.0,78,0.00,,---,0.00,VWS V14.01,2013-02-24 15:42:00,
2013-02-24 06:44:00,-23.4,-28.0,29.49,NNW,335,0.0,0.0,78,0.00,,---,0.00,VWS V14.01,2013-02-24 15:44:00,
2013-02-24 06:45:00,-23.5,-28.1,29.49,NNW,335,0.0,0.0,78,0.00,,---,0.00,VWS V14.01,2013-02-24 15:45:00,
2013-02-24 06:46:00,-23.4,-28.0,29.49,NNW,335,0.0,0.0,78,0.00,,---,0.00,VWS V14.01,2013-02-24 15:46:00,
2013-02-24 06:47:00,-23.4,-28.0,29.49,NNW,335,0.0,0.0,78,0.00,,---,0.00,VWS V14.01,2013-02-24 15:47:00,
2013-02-24 06:50:00,-23.3,-27.9,29.49,NNW,335,0.0,0.0,78,0.00,,---,0.00,VWS V14.01,2013-02-24 15:50:00,
2013-02-24 06:51:00,-23.3,-27.9,29.49,NNW,335,0.0,0.0,78,0.00,,---,0.00,VWS V14.01,2013-02-24 15:51:00,
2013-02-24 06:52:00,-23.3,-27.9,29.49,NNW,335,0.0,0.0,78,0.00,,---,0.00,VWS V14.01,2013-02-24 15:52:00,
2013-02-24 06:55:00,-23.2,-27.8,29.50,NNW,335,0.0,0.0,78,0.00,,---,0.00,VWS V14.01,2013-02-24 15:55:00,
2013-02-24 06:56:00,-23.2,-27.8,29.50,NNW,335,0.0,0.0,78,0.00,,---,0.00,VWS V14.01,2013-02-24 15:56:00,
2013-02-24 06:57:00,-23.2,-27.8,29.50,NNW,335,0.0,0.0,78,0.00,,---,0.00,VWS V14.01,2013-02-24 15:57:00,
2013-02-24 07:00:00,-23.1,-27.7,29.50,NNW,335,1.0,2.0,78,0.00,,---,0.00,VWS V14.01,2013-02-24 16:00:00,
2013-02-24 07:01:00,-23.1,-27.7,29.50,NNW,335,1.0,2.0,78,0.00,,---,0.00,VWS V14.01,2013-02-24 16:01:00,
2013-02-24 07:02:00,-23.1,-27.7,29.50,NNW,335,1.0,2.0,78,0.00,,---,0.00,VWS V14.01,2013-02-24 16:02:00,
2013-02-24 07:05:00,-22.9,-27.5,29.50,NNW,335,0.0,2.0,78,0.00,,---,0.00,VWS V14.01,2013-02-24 16:05:00,
2013-02-24 07:06:00,-22.9,-27.5,29.50,NNW,335,0.0,2.0,78,0.00,,---,0.00,VWS V14.01,2013-02-24 16:06:00,
2013-02-24 07:07:00,-22.9,-27.5,29.50,NNW,335,0.0,2.0,78,0.00,,---,0.00,VWS V14.01,2013-02-24 16:07:00,
2013-02-24 07:10:00,-22.8,-27.2,29.50,NNW,335,0.0,1.0,79,0.00,,---,0.00,VWS V14.01,2013-02-24 16:10:00,
2013-02-24 07:11:00,-22.7,-27.1,29.50,NNW,335,0.0,1.0,79,0.00,,---,0.00,VWS V14.01,2013-02-24 16:11:00,
2013-02-24 07:12:00,-22.7,-27.1,29.50,NNW,335,0.0,0.0,79,0.00,,---,0.00,VWS V14.01,2013-02-24 16:12:00,
2013-02-24 07:15:00,-22.7,-27.4,29.50,NNW,335,0.0,0.0,78,0.00,,---,0.00,VWS V14.01,2013-02-24 16:15:00,
2013-02-24 07:16:00,-22.7,-27.4,29.50,NNW,335,0.0,0.0,78,0.00,,---,0.00,VWS V14.01,2013-02-24 16:16:00,
2013-02-24 07:17:00,-22.8,-27.5,29.50,NNW,335,0.0,0.0,78,0.00,,---,0.00,VWS V14.01,2013-02-24 16:17:00,
2013-02-24 07:18:00,-22.8,-27.5,29.50,NNW,335,0.0,0.0,78,0.00,,---,0.00,VWS V14.01,2013-02-24 16:18:00,
2013-02-24 07:20:00,-22.9,-27.5,29.50,NNW,335,0.0,0.0,78,0.00,,---,0.00,VWS V14.01,2013-02-24 16:20:00,
2013-02-24 07:21:00,-23.0,-27.6,29.50,NNW,335,0.0,0.0,78,0.00,,---,0.00,VWS V14.01,2013-02-24 16:21:00,
2013-02-24 07:22:00,-23.0,-27.6,29.50,NNW,335,0.0,0.0,78,0.00,,---,0.00,VWS V14.01,2013-02-24 16:22:00,
2013-02-24 07:23:00,-23.1,-27.7,29.50,NNW,335,0.0,0.0,78,0.00,,---,0.00,VWS V14.01,2013-02-24 16:23:00,
2013-02-24 07:25:00,-23.5,-28.4,29.50,NNW,335,0.0,0.0,77,0.00,,---,0.00,VWS V14.01,2013-02-24 16:25:00,
2013-02-24 07:26:00,-23.6,-28.5,29.50,NNW,335,0.0,0.0,77,0.00,,---,0.00,VWS V14.01,2013-02-24 16:26:00,
2013-02-24 07:27:00,-23.8,-28.9,29.50,NNW,335,0.0,0.0,76,0.00,,---,0.00,VWS V14.01,2013-02-24 16:27:00,
2013-02-24 07:28:00,-23.8,-28.9,29.50,NNW,335,0.0,0.0,76,0.00,,---,0.00,VWS V14.01,2013-02-24 16:28:00,
2013-02-24 07:30:00,-23.7,-28.6,29.50,NNW,335,0.0,0.0,77,0.00,,---,0.00,VWS V14.01,2013-02-24 16:30:00,
2013-02-24 07:31:00,-24.1,-29.2,29.50,NNW,335,0.0,0.0,76,0.00,,---,0.00,VWS V14.01,2013-02-24 16:31:00,
2013-02-24 07:33:00,-24.2,-29.3,29.50,NNW,335,0.0,0.0,76,0.00,,---,0.00,VWS V14.01,2013-02-24 16:33:00,
2013-02-24 07:35:00,-24.2,-29.3,29.50,NNW,335,0.0,1.0,76,0.00,,---,0.00,VWS V14.01,2013-02-24 16:35:00,
2013-02-24 07:36:00,-24.3,-29.4,29.51,NNW,335,1.0,1.0,76,0.00,,---,0.00,VWS V14.01,2013-02-24 16:36:00,
2013-02-24 07:38:00,-24.3,-29.1,29.51,NNW,335,0.0,1.0,77,0.00,,---,0.00,VWS V14.01,2013-02-24 16:38:00,
2013-02-24 07:40:00,-24.3,-29.1,29.51,NNW,335,0.0,1.0,77,0.00,,---,0.00,VWS V14.01,2013-02-24 16:40:00,
2013-02-24 07:41:00,-24.3,-29.1,29.50,NNW,335,1.0,1.0,77,0.00,,---,0.00,VWS V14.01,2013-02-24 16:41:00,
2013-02-24 07:42:00,-24.4,-29.2,29.51,NNW,335,1.0,1.0,77,0.00,,---,0.00,VWS V14.01,2013-02-24 16:42:00,
2013-02-24 07:43:00,-24.4,-29.2,29.51,NNW,335,1.0,2.0,77,0.00,,---,0.00,VWS V14.01,2013-02-24 16:43:00,
2013-02-24 07:45:00,-24.3,-29.1,29.50,NNW,335,0.0,1.0,77,0.00,,---,0.00,VWS V14.01,2013-02-24 16:45:00,
2013-02-24 07:46:00,-24.3,-29.1,29.51,NNW,335,2.0,2.0,77,0.00,,---,0.00,VWS V14.01,2013-02-24 16:46:00,
2013-02-24 07:47:00,-24.3,-29.1,29.51,NNW,335,2.0,2.0,77,0.00,,---,0.00,VWS V14.01,2013-02-24 16:47:00,
2013-02-24 07:48:00,-24.3,-29.1,29.51,NNW,335,2.0,2.0,77,0.00,,---,0.00,VWS V14.01,2013-02-24 16:48:00,
2013-02-24 07:50:00,-24.3,-29.1,29.51,NNW,335,1.0,2.0,77,0.00,,---,0.00,VWS V14.01,2013-02-24 16:50:00,
2013-02-24 07:51:00,-24.4,-29.2,29.51,NNW,335,1.0,2.0,77,0.00,,---,0.00,VWS V14.01,2013-02-24 16:51:00,
2013-02-24 07:52:00,-24.5,-29.3,29.51,NNW,335,1.0,2.0,77,0.00,,---,0.00,VWS V14.01,2013-02-24 16:52:00,
2013-02-24 07:53:00,-24.5,-29.1,29.51,NNW,335,2.0,2.0,78,0.00,,---,0.00,VWS V14.01,2013-02-24 16:53:00,
2013-02-24 07:55:00,-24.4,-29.2,29.51,NNW,335,1.0,2.0,77,0.00,,---,0.00,VWS V14.01,2013-02-24 16:55:00,
2013-02-24 07:57:00,-24.4,-29.0,29.51,NNW,335,0.0,0.0,78,0.00,,---,0.00,VWS V14.01,2013-02-24 16:57:00,
2013-02-24 07:58:00,-24.4,-29.0,29.51,NNW,335,0.0,0.0,78,0.00,,---,0.00,VWS V14.01,2013-02-24 16:58:00,
2013-02-24 08:00:00,-24.4,-29.0,29.51,NNW,335,0.0,2.0,78,0.00,,---,0.00,VWS V14.01,2013-02-24 17:00:00,
2013-02-24 08:02:00,-24.4,-29.0,29.51,NNW,335,0.0,0.0,78,0.00,,---,0.00,VWS V14.01,2013-02-24 17:02:00,
2013-02-24 08:03:00,-24.5,-29.1,29.51,NNW,335,0.0,0.0,78,0.00,,---,0.00,VWS V14.01,2013-02-24 17:03:00,
2013-02-24 08:04:00,-24.5,-29.1,29.51,NNW,335,0.0,0.0,78,0.00,,---,0.00,VWS V14.01,2013-02-24 17:04:00,
2013-02-24 08:05:00,-24.4,-29.0,29.51,NNW,335,0.0,0.0,78,0.00,,---,0.00,VWS V14.01,2013-02-24 17:05:00,
2013-02-24 08:07:00,-24.6,-29.4,29.51,NNW,335,0.0,0.0,77,0.00,,---,0.00,VWS V14.01,2013-02-24 17:07:00,
2013-02-24 08:08:00,-24.6,-29.4,29.51,NNW,335,0.0,0.0,77,0.00,,---,0.00,VWS V14.01,2013-02-24 17:08:00,
2013-02-24 08:09:00,-24.6,-29.4,29.51,NNW,335,0.0,0.0,77,0.00,,---,0.00,VWS V14.01,2013-02-24 17:09:00,
2013-02-24 08:10:00,-24.6,-29.4,29.51,NNW,335,0.0,0.0,77,0.00,,---,0.00,VWS V14.01,2013-02-24 17:10:00,
2013-02-24 08:12:00,-24.8,-29.6,29.51,NNW,335,0.0,0.0,77,0.00,,---,0.00,VWS V14.01,2013-02-24 17:12:00,
2013-02-24 08:14:00,-24.9,-29.7,29.51,NNW,335,0.0,0.0,77,0.00,,---,0.00,VWS V14.01,2013-02-24 17:14:00,
2013-02-24 08:15:00,-24.7,-29.5,29.51,NNW,335,0.0,0.0,77,0.00,,---,0.00,VWS V14.01,2013-02-24 17:15:00,
2013-02-24 08:17:00,-25.1,-30.2,29.51,NNW,335,0.0,0.0,76,0.00,,---,0.00,VWS V14.01,2013-02-24 17:17:00,
2013-02-24 08:18:00,-25.2,-30.3,29.51,NNW,335,0.0,0.0,76,0.00,,---,0.00,VWS V14.01,2013-02-24 17:18:00,
2013-02-24 08:19:00,-25.2,-30.3,29.51,NNW,335,0.0,0.0,76,0.00,,---,0.00,VWS V14.01,2013-02-24 17:19:00,
2013-02-24 08:20:00,-25.1,-29.9,29.51,NNW,335,0.0,0.0,77,0.00,,---,0.00,VWS V14.01,2013-02-24 17:20:00,
2013-02-24 08:22:00,-25.3,-30.1,29.52,NNW,335,0.0,0.0,77,0.00,,---,0.00,VWS V14.01,2013-02-24 17:22:00,
2013-02-24 08:23:00,-25.3,-30.1,29.51,NNW,335,0.0,0.0,77,0.00,,---,0.00,VWS V14.01,2013-02-24 17:23:00,
2013-02-24 08:24:00,-25.3,-30.1,29.52,NNW,335,0.0,0.0,77,0.00,,---,0.00,VWS V14.01,2013-02-24 17:24:00,
2013-02-24 08:25:00,-25.3,-30.1,29.52,NNW,335,0.0,0.0,77,0.00,,---,0.00,VWS V14.01,2013-02-24 17:25:00,
2013-02-24 08:27:00,-25.2,-30.0,29.52,NNW,335,0.0,0.0,77,0.00,,---,0.00,VWS V14.01,2013-02-24 17:27:00,
2013-02-24 08:28:00,-25.2,-30.0,29.52,NNW,335,0.0,0.0,77,0.00,,---,0.00,VWS V14.01,2013-02-24 17:28:00,
2013-02-24 08:29:00,-25.2,-30.0,29.52,NNW,335,0.0,0.0,77,0.00,,---,0.00,VWS V14.01,2013-02-24 17:29:00,
2013-02-24 08:30:00,-25.1,-29.9,29.52,NNW,335,0.0,0.0,77,0.00,,---,0.00,VWS V14.01,2013-02-24 17:30:00,
2013-02-24 08:33:00,-25.0,-29.6,29.52,NNW,335,0.0,0.0,78,0.00,,---,0.00,VWS V14.01,2013-02-24 17:33:00,
2013-02-24 08:34:00,-24.9,-29.5,29.52,NNW,335,0.0,0.0,78,0.00,,---,0.00,VWS V14.01,2013-02-24 17:34:00,
2013-02-24 08:35:00,-24.9,-29.5,29.52,NNW,335,0.0,0.0,78,0.00,,---,0.00,VWS V14.01,2013-02-24 17:35:00,
2013-02-24 08:38:00,-24.8,-29.4,29.52,NNW,335,0.0,0.0,78,0.00,,---,0.00,VWS V14.01,2013-02-24 17:38:00,
2013-02-24 08:39:00,-24.8,-29.4,29.52,NNW,335,0.0,0.0,78,0.00,,---,0.00,VWS V14.01,2013-02-24 17:39:00,
2013-02-24 08:40:00,-24.8,-29.4,29.52,NNW,335,0.0,0.0,78,0.00,,---,0.00,VWS V14.01,2013-02-24 17:40:00,
2013-02-24 08:43:00,-24.7,-29.3,29.52,NNW,335,0.0,0.0,78,0.00,,---,0.00,VWS V14.01,2013-02-24 17:43:00,
2013-02-24 08:44:00,-24.7,-29.3,29.53,NNW,335,0.0,0.0,78,0.00,,---,0.00,VWS V14.01,2013-02-24 17:44:00,
2013-02-24 08:45:00,-24.7,-29.3,29.53,NNW,335,0.0,0.0,78,0.00,,---,0.00,VWS V14.01,2013-02-24 17:45:00,
2013-02-24 08:48:00,-24.6,-29.2,29.53,NNW,335,0.0,0.0,78,0.00,,---,0.00,VWS V14.01,2013-02-24 17:48:00,
2013-02-24 08:49:00,-24.7,-29.3,29.53,NNW,335,0.0,0.0,78,0.00,,---,0.00,VWS V14.01,2013-02-24 17:49:00,
2013-02-24 08:50:00,-24.7,-29.3,29.53,NNW,335,0.0,0.0,78,0.00,,---,0.00,VWS V14.01,2013-02-24 17:50:00,
2013-02-24 08:53:00,-24.8,-29.6,29.53,NNW,335,0.0,0.0,77,0.00,,---,0.00,VWS V14.01,2013-02-24 17:53:00,
2013-02-24 08:54:00,-24.9,-29.7,29.53,NNW,335,0.0,0.0,77,0.00,,---,0.00,VWS V14.01,2013-02-24 17:54:00,
2013-02-24 08:55:00,-24.9,-29.7,29.53,NNW,335,0.0,0.0,77,0.00,,---,0.00,VWS V14.01,2013-02-24 17:55:00,
2013-02-24 08:56:00,-25.0,-29.8,29.53,NNW,335,0.0,0.0,77,0.00,,---,0.00,VWS V14.01,2013-02-24 17:56:00,
2013-02-24 08:58:00,-25.1,-30.2,29.53,NNW,335,0.0,0.0,76,0.00,,---,0.00,VWS V14.01,2013-02-24 17:58:00,
2013-02-24 09:00:00,-25.2,-30.3,29.53,NNW,335,0.0,0.0,76,0.00,,---,0.00,VWS V14.01,2013-02-24 18:00:00,
2013-02-24 09:01:00,-25.2,-30.3,29.53,NNW,335,0.0,0.0,76,0.00,,---,0.00,VWS V14.01,2013-02-24 18:01:00,
2013-02-24 09:04:00,-25.1,-29.9,29.53,NNW,335,0.0,0.0,77,0.00,,---,0.00,VWS V14.01,2013-02-24 18:04:00,
2013-02-24 09:05:00,-24.8,-29.6,29.53,NNW,335,0.0,0.0,77,0.00,,---,0.00,VWS V14.01,2013-02-24 18:05:00,
2013-02-24 09:06:00,-24.8,-29.4,29.53,NNW,335,0.0,0.0,78,0.00,,---,0.00,VWS V14.01,2013-02-24 18:06:00,
2013-02-24 09:09:00,-24.6,-29.2,29.53,NNW,335,0.0,0.0,78,0.00,,---,0.00,VWS V14.01,2013-02-24 18:09:00,
2013-02-24 09:10:00,-24.4,-28.8,29.53,NNW,335,0.0,0.0,79,0.00,,---,0.00,VWS V14.01,2013-02-24 18:10:00,
2013-02-24 09:11:00,-24.4,-28.8,29.54,NNW,335,0.0,0.0,79,0.00,,---,0.00,VWS V14.01,2013-02-24 18:11:00,
2013-02-24 09:14:00,-24.2,-28.8,29.54,NNW,335,0.0,0.0,78,0.00,,---,0.00,VWS V14.01,2013-02-24 18:14:00,
2013-02-24 09:15:00,-24.2,-28.8,29.54,NNW,335,0.0,0.0,78,0.00,,---,0.00,VWS V14.01,2013-02-24 18:15:00,
2013-02-24 09:16:00,-24.2,-28.8,29.54,NNW,335,0.0,0.0,78,0.00,,---,0.00,VWS V14.01,2013-02-24 18:16:00,
2013-02-24 09:19:00,-24.1,-28.7,29.54,NNW,335,0.0,0.0,78,0.00,,---,0.00,VWS V14.01,2013-02-24 18:19:00,
2013-02-24 09:20:00,-24.1,-28.7,29.54,NNW,335,0.0,0.0,78,0.00,,---,0.00,VWS V14.01,2013-02-24 18:20:00,
2013-02-24 09:21:00,-24.1,-28.7,29.54,NNW,335,0.0,0.0,78,0.00,,---,0.00,VWS V14.01,2013-02-24 18:21:00,
2013-02-24 09:22:00,-24.1,-28.7,29.54,NNW,335,0.0,0.0,78,0.00,,---,0.00,VWS V14.01,2013-02-24 18:22:00,
2013-02-24 09:24:00,-24.1,-28.7,29.54,NNW,335,0.0,0.0,78,0.00,,---,0.00,VWS V14.01,2013-02-24 18:24:00,
2013-02-24 09:25:00,-24.1,-28.7,29.54,NNW,335,0.0,0.0,78,0.00,,---,0.00,VWS V14.01,2013-02-24 18:25:00,
2013-02-24 09:26:00,-24.0,-28.6,29.54,NNW,335,0.0,0.0,78,0.00,,---,0.00,VWS V14.01,2013-02-24 18:26:00,
2013-02-24 09:27:00,-24.0,-28.6,29.54,NNW,335,0.0,0.0,78,0.00,,---,0.00,VWS V14.01,2013-02-24 18:27:00,
2013-02-24 09:30:00,-23.8,-28.4,29.54,NNW,335,0.0,2.0,78,0.00,,---,0.00,VWS V14.01,2013-02-24 18:30:00,
2013-02-24 09:32:00,-23.7,-28.1,29.54,NNW,335,0.0,2.0,79,0.00,,---,0.00,VWS V14.01,2013-02-24 18:32:00,
2013-02-24 09:35:00,-23.7,-28.3,29.54,NNW,335,0.0,0.0,78,0.00,,---,0.00,VWS V14.01,2013-02-24 18:35:00,
2013-02-24 09:37:00,-23.8,-28.4,29.54,NNW,335,0.0,0.0,78,0.00,,---,0.00,VWS V14.01,2013-02-24 18:37:00,
2013-02-24 09:38:00,-23.8,-28.4,29.54,NNW,335,0.0,0.0,78,0.00,,---,0.00,VWS V14.01,2013-02-24 18:38:00,
2013-02-24 09:40:00,-23.9,-28.5,29.54,NNW,335,0.0,2.0,78,0.00,,---,0.00,VWS V14.01,2013-02-24 18:40:00,
2013-02-24 09:42:00,-23.9,-28.5,29.54,NNW,335,0.0,0.0,78,0.00,,---,0.00,VWS V14.01,2013-02-24 18:42:00,
2013-02-24 09:43:00,-24.0,-28.6,29.54,NNW,335,0.0,0.0,78,0.00,,---,0.00,VWS V14.01,2013-02-24 18:43:00,
2013-02-24 09:45:00,-24.0,-28.9,29.54,NNW,335,0.0,0.0,77,0.00,,---,0.00,VWS V14.01,2013-02-24 18:45:00,
2013-02-24 09:48:00,-27.6,-33.3,29.54,North,360,1.0,1.0,73,0.00,,---,0.00,VWS V14.01,2013-02-24 18:48:00,
2013-02-24 09:50:00,-27.4,-33.1,29.55,North,360,1.0,1.0,73,0.00,,---,0.00,VWS V14.01,2013-02-24 18:50:00,
2013-02-24 09:53:00,-24.7,-29.5,29.55,NNW,335,3.0,3.0,77,0.00,,---,0.00,VWS V14.01,2013-02-24 18:53:00,
2013-02-24 09:55:00,-24.8,-30.4,29.55,North,360,1.0,3.0,74,0.00,,---,0.00,VWS V14.01,2013-02-24 18:55:00,
2013-02-24 09:56:00,-26.9,-32.4,29.55,North,360,1.0,3.0,74,0.00,,---,0.00,VWS V14.01,2013-02-24 18:56:00,
2013-02-24 09:58:00,-26.8,-32.3,29.55,North,355,1.0,2.0,74,0.00,,---,0.00,VWS V14.01,2013-02-24 18:58:00,
2013-02-24 10:00:00,-26.7,-32.2,29.55,NNW,341,1.0,2.0,74,0.00,,---,0.00,VWS V14.01,2013-02-24 19:00:00,
2013-02-24 10:01:00,-26.7,-32.2,29.55,NNW,341,1.0,2.0,74,0.00,,---,0.00,VWS V14.01,2013-02-24 19:01:00,
2013-02-24 10:03:00,-26.5,-32.0,29.55,NNW,339,1.0,1.0,74,0.00,,---,0.00,VWS V14.01,2013-02-24 19:03:00,
2013-02-24 10:05:00,-26.6,-32.1,29.55,NNW,339,1.0,2.0,74,0.00,,---,0.00,VWS V14.01,2013-02-24 19:05:00,
2013-02-24 10:06:00,-26.5,-32.0,29.55,NNW,339,0.0,1.0,74,0.00,,---,0.00,VWS V14.01,2013-02-24 19:06:00,
2013-02-24 10:08:00,-26.4,-31.9,29.55,North,349,1.0,1.0,74,0.00,,---,0.00,VWS V14.01,2013-02-24 19:08:00,
2013-02-24 10:10:00,-26.4,-31.9,29.55,NNW,339,0.0,1.0,74,0.00,,---,0.00,VWS V14.01,2013-02-24 19:10:00,
2013-02-24 10:11:00,-26.3,-31.8,29.55,North,355,1.0,1.0,74,0.00,,---,0.00,VWS V14.01,2013-02-24 19:11:00,
2013-02-24 10:13:00,-26.2,-31.7,29.55,North,355,0.0,1.0,74,0.00,,---,0.00,VWS V14.01,2013-02-24 19:13:00,
2013-02-24 10:15:00,-26.3,-31.8,29.55,North,355,1.0,1.0,74,0.00,,---,0.00,VWS V14.01,2013-02-24 19:15:00,
2013-02-24 10:16:00,-26.1,-31.6,29.55,North,351,1.0,1.0,74,0.00,,---,0.00,VWS V14.01,2013-02-24 19:16:00,
2013-02-24 10:18:00,-26.0,-31.5,29.56,North,355,1.0,2.0,74,0.00,,---,0.00,VWS V14.01,2013-02-24 19:18:00,
2013-02-24 10:20:00,-26.1,-31.6,29.55,North,355,1.0,2.0,74,0.00,,---,0.00,VWS V14.01,2013-02-24 19:20:00,
2013-02-24 10:21:00,-26.0,-31.5,29.56,North,351,1.0,2.0,74,0.00,,---,0.00,VWS V14.01,2013-02-24 19:21:00,
2013-02-24 10:23:00,-25.8,-31.3,29.56,North,355,1.0,3.0,74,0.00,,---,0.00,VWS V14.01,2013-02-24 19:23:00,
2013-02-24 10:24:00,-25.7,-31.2,29.56,North,355,1.0,3.0,74,0.00,,---,0.00,VWS V14.01,2013-02-24 19:24:00,
2013-02-24 10:25:00,-26.0,-31.5,29.56,North,350,2.0,3.0,74,0.00,,---,0.00,VWS V14.01,2013-02-24 19:25:00,
2013-02-24 10:26:00,-25.4,-30.7,29.56,NNW,346,2.0,3.0,75,0.00,,---,0.00,VWS V14.01,2013-02-24 19:26:00,
2013-02-24 10:29:00,-24.9,-30.2,29.56,NNW,328,2.0,3.0,75,0.00,,---,0.00,VWS V14.01,2013-02-24 19:29:00,
2013-02-24 10:30:00,-25.3,-30.8,29.56,NNW,344,3.0,3.0,74,0.00,,---,0.00,VWS V14.01,2013-02-24 19:30:00,
2013-02-24 10:31:00,-24.4,-29.7,29.56,NW,313,3.0,3.0,75,0.00,,---,0.00,VWS V14.01,2013-02-24 19:31:00,
2013-02-24 10:34:00,-24.0,-29.3,29.56,NW,313,1.0,2.0,75,0.00,,---,0.00,VWS V14.01,2013-02-24 19:34:00,
2013-02-24 10:35:00,-24.4,-29.7,29.56,NW,317,1.0,3.0,75,0.00,,---,0.00,VWS V14.01,2013-02-24 19:35:00,
2013-02-24 10:36:00,-23.5,-28.9,29.56,NNW,328,1.0,3.0,75,0.00,,---,0.00,VWS V14.01,2013-02-24 19:36:00,
2013-02-24 10:39:00,-23.1,-28.2,29.56,NNW,342,1.0,3.0,76,0.00,,---,0.00,VWS V14.01,2013-02-24 19:39:00,
2013-02-24 10:40:00,-23.4,-28.8,29.56,NNW,345,2.0,3.0,75,0.00,,---,0.00,VWS V14.01,2013-02-24 19:40:00,
2013-02-24 10:41:00,-22.7,-28.1,29.56,NNW,336,3.0,3.0,75,0.00,,---,0.00,VWS V14.01,2013-02-24 19:41:00,
2013-02-24 10:44:00,-22.4,-27.8,29.56,North,355,2.0,3.0,75,0.00,,---,0.00,VWS V14.01,2013-02-24 19:44:00,
2013-02-24 10:45:00,-22.6,-28.0,29.56,NNW,347,2.0,3.0,75,0.00,,---,0.00,VWS V14.01,2013-02-24 19:45:00,
2013-02-24 10:46:00,-22.3,-27.7,29.56,NNW,342,3.0,4.0,75,0.00,,---,0.00,VWS V14.01,2013-02-24 19:46:00,
2013-02-24 10:49:00,-22.1,-27.5,29.56,NNW,342,1.0,3.0,75,0.00,,---,0.00,VWS V14.01,2013-02-24 19:49:00,
2013-02-24 10:50:00,-22.0,-27.4,29.56,NNW,342,0.0,3.0,75,0.00,,---,0.00,VWS V14.01,2013-02-24 19:50:00,
2013-02-24 10:52:00,-21.8,-27.2,29.56,NNW,342,1.0,3.0,75,0.00,,---,0.00,VWS V14.01,2013-02-24 19:52:00,
2013-02-24 10:55:00,-21.2,-26.4,29.56,NNW,340,2.0,3.0,76,0.00,,---,0.00,VWS V14.01,2013-02-24 19:55:00,
2013-02-24 10:57:00,-21.0,-26.2,29.56,NNW,348,1.0,2.0,76,0.00,,---,0.00,VWS V14.01,2013-02-24 19:57:00,
2013-02-24 11:00:00,-20.6,-25.8,29.56,NNW,329,1.0,3.0,76,0.00,,---,0.00,VWS V14.01,2013-02-24 20:00:00,
2013-02-24 11:02:00,-20.2,-25.4,29.57,NNW,336,3.0,3.0,76,0.00,,---,0.00,VWS V14.01,2013-02-24 20:02:00,
2013-02-24 11:05:00,-19.7,-24.9,29.57,NNW,327,2.0,4.0,76,0.00,,---,0.00,VWS V14.01,2013-02-24 20:05:00,
2013-02-24 11:07:00,-19.4,-24.6,29.57,NNW,347,2.0,2.0,76,0.00,,---,0.00,VWS V14.01,2013-02-24 20:07:00,
2013-02-24 11:08:00,-19.3,-24.5,29.57,North,355,2.0,3.0,76,0.00,,---,0.00,VWS V14.01,2013-02-24 20:08:00,
2013-02-24 11:10:00,-19.0,-24.2,29.57,NNW,348,2.0,4.0,76,0.00,,---,0.00,VWS V14.01,2013-02-24 20:10:00,
2013-02-24 11:12:00,-18.9,-24.1,29.57,NNW,348,2.0,2.0,76,0.00,,---,0.00,VWS V14.01,2013-02-24 20:12:00,
2013-02-24 11:13:00,-18.9,-24.1,29.57,NNW,337,2.0,3.0,76,0.00,,---,0.00,VWS V14.01,2013-02-24 20:13:00,
2013-02-24 11:15:00,-18.7,-23.9,29.57,NNW,330,2.0,3.0,76,0.00,,---,0.00,VWS V14.01,2013-02-24 20:15:00,
2013-02-24 11:16:00,-18.5,-23.7,29.57,NNW,328,1.0,3.0,76,0.00,,---,0.00,VWS V14.01,2013-02-24 20:16:00,
2013-02-24 11:17:00,-18.4,-23.6,29.57,NW,313,1.0,2.0,76,0.00,,---,0.00,VWS V14.01,2013-02-24 20:17:00,
2013-02-24 11:18:00,-18.3,-23.5,29.57,NW,324,1.0,3.0,76,0.00,,---,0.00,VWS V14.01,2013-02-24 20:18:00,
2013-02-24 11:20:00,-18.5,-23.7,29.57,NW,324,1.0,3.0,76,0.00,,---,0.00,VWS V14.01,2013-02-24 20:20:00,
2013-02-24 11:21:00,-18.1,-23.4,29.57,NW,323,2.0,3.0,76,0.00,,---,0.00,VWS V14.01,2013-02-24 20:21:00,
2013-02-24 11:23:00,-17.9,-23.2,29.57,NNW,330,2.0,4.0,76,0.00,,---,0.00,VWS V14.01,2013-02-24 20:23:00,
2013-02-24 11:25:00,-18.0,-23.2,29.57,NNW,340,2.0,3.0,76,0.00,,---,0.00,VWS V14.01,2013-02-24 20:25:00,
2013-02-24 11:26:00,-17.7,-23.0,29.57,NNW,327,3.0,4.0,76,0.00,,---,0.00,VWS V14.01,2013-02-24 20:26:00,
2013-02-24 11:28:00,-17.7,-23.0,29.57,NNW,333,3.0,4.0,76,0.00,,---,0.00,VWS V14.01,2013-02-24 20:28:00,
2013-02-24 11:29:00,-17.7,-23.0,29.57,NNW,331,3.0,4.0,76,0.00,,---,0.00,VWS V14.01,2013-02-24 20:29:00,
2013-02-24 11:30:00,-17.7,-23.0,29.57,NW,323,3.0,4.0,76,0.00,,---,0.00,VWS V14.01,2013-02-24 20:30:00,
2013-02-24 11:31:00,-17.7,-23.2,29.57,NW,320,1.0,4.0,75,0.00,,---,0.00,VWS V14.01,2013-02-24 20:31:00,
2013-02-24 11:32:00,-17.7,-23.2,29.57,NW,321,3.0,3.0,75,0.00,,---,0.00,VWS V14.01,2013-02-24 20:32:00,
2013-02-24 11:33:00,-17.6,-23.1,29.57,NW,315,2.0,3.0,75,0.00,,---,0.00,VWS V14.01,2013-02-24 20:33:00,
2013-02-24 11:34:00,-17.6,-23.1,29.57,NW,317,4.0,4.0,75,0.00,,---,0.00,VWS V14.01,2013-02-24 20:34:00,
2013-02-24 11:35:00,-17.6,-23.1,29.57,NW,325,2.0,4.0,75,0.00,,---,0.00,VWS V14.01,2013-02-24 20:35:00,
2013-02-24 11:36:00,-17.7,-23.2,29.57,NW,310,2.0,4.0,75,0.00,,---,0.00,VWS V14.01,2013-02-24 20:36:00,
2013-02-24 11:37:00,-17.7,-23.2,29.57,NW,322,3.0,3.0,75,0.00,,---,0.00,VWS V14.01,2013-02-24 20:37:00,
2013-02-24 11:39:00,-17.7,-23.2,29.58,NW,306,1.0,4.0,75,0.00,,---,0.00,VWS V14.01,2013-02-24 20:39:00,
2013-02-24 11:40:00,-17.7,-23.2,29.57,NW,325,2.0,4.0,75,0.00,,---,0.00,VWS V14.01,2013-02-24 20:40:00,
2013-02-24 11:41:00,-17.5,-23.0,29.58,NW,326,1.0,4.0,75,0.00,,---,0.00,VWS V14.01,2013-02-24 20:41:00,
2013-02-24 11:42:00,-17.4,-22.7,29.58,NW,319,2.0,4.0,76,0.00,,---,0.00,VWS V14.01,2013-02-24 20:42:00,
2013-02-24 11:44:00,-17.2,-22.5,29.58,WNW,302,3.0,4.0,76,0.00,,---,0.00,VWS V14.01,2013-02-24 20:44:00,
2013-02-24 11:45:00,-17.5,-23.0,29.58,NW,315,3.0,4.0,75,0.00,,---,0.00,VWS V14.01,2013-02-24 20:45:00,
2013-02-24 11:47:00,-16.9,-22.2,29.58,NW,326,2.0,4.0,76,0.00,,---,0.00,VWS V14.01,2013-02-24 20:47:00,
2013-02-24 11:49:00,-16.6,-21.9,29.58,NW,317,1.0,4.0,76,0.00,,---,0.00,VWS V14.01,2013-02-24 20:49:00,
2013-02-24 11:50:00,-16.6,-21.9,29.58,NW,317,1.0,4.0,76,0.00,,---,0.00,VWS V14.01,2013-02-24 20:50:00,
2013-02-24 11:52:00,-16.0,-20.8,29.58,NNW,335,2.0,4.0,78,0.00,,---,0.00,VWS V14.01,2013-02-24 20:52:00,
2013-02-24 11:54:00,-15.8,-20.6,29.58,NNW,335,0.0,2.0,78,0.00,,---,0.00,VWS V14.01,2013-02-24 20:54:00,
2013-02-24 11:55:00,-15.8,-20.6,29.58,NNW,335,0.0,2.0,78,0.00,,---,0.00,VWS V14.01,2013-02-24 20:55:00,
2013-02-24 11:57:00,-15.6,-20.4,29.58,NNW,335,0.0,0.0,78,0.00,,---,0.00,VWS V14.01,2013-02-24 20:57:00,
2013-02-24 11:59:00,-15.3,-19.9,29.58,NNW,335,0.0,0.0,79,0.00,,---,0.00,VWS V14.01,2013-02-24 20:59:00,
2013-02-24 12:00:00,-15.1,-19.7,29.58,NNW,335,1.0,2.0,79,0.00,,---,0.00,VWS V14.01,2013-02-24 21:00:00,
2013-02-24 12:02:00,-14.9,-19.5,29.58,NNW,335,1.0,1.0,79,0.00,,---,0.00,VWS V14.01,2013-02-24 21:02:00,
2013-02-24 12:04:00,-14.4,-19.0,29.58,NNW,335,0.0,3.0,79,0.00,,---,0.00,VWS V14.01,2013-02-24 21:04:00,
2013-02-24 12:05:00,-14.3,-18.7,29.59,NNW,335,0.0,3.0,80,0.00,,---,0.00,VWS V14.01,2013-02-24 21:05:00,
2013-02-24 12:07:00,-14.0,-18.4,29.59,NNW,335,2.0,2.0,80,0.00,,---,0.00,VWS V14.01,2013-02-24 21:07:00,
2013-02-24 12:08:00,-13.9,-18.3,29.59,NNW,335,0.0,2.0,80,0.00,,---,0.00,VWS V14.01,2013-02-24 21:08:00,
2013-02-24 12:10:00,-13.7,-18.1,29.58,NNW,335,0.0,2.0,80,0.00,,---,0.00,VWS V14.01,2013-02-24 21:10:00,
2013-02-24 12:12:00,-13.3,-17.7,29.59,NNW,335,0.0,0.0,80,0.00,,---,0.00,VWS V14.01,2013-02-24 21:12:00,
2013-02-24 12:13:00,-13.3,-17.7,29.59,NNW,335,0.0,0.0,80,0.00,,---,0.00,VWS V14.01,2013-02-24 21:13:00,
2013-02-24 12:15:00,-13.0,-17.4,29.59,NNW,335,1.0,3.0,80,0.00,,---,0.00,VWS V14.01,2013-02-24 21:15:00,
2013-02-24 12:17:00,-12.8,-17.4,29.59,NNW,335,0.0,0.0,79,0.00,,---,0.00,VWS V14.01,2013-02-24 21:17:00,
2013-02-24 12:18:00,-12.7,-17.4,29.59,NNW,335,0.0,0.0,79,0.00,,---,0.00,VWS V14.01,2013-02-24 21:18:00,
2013-02-24 12:20:00,-12.4,-16.8,29.59,NNW,335,0.0,0.0,80,0.00,,---,0.00,VWS V14.01,2013-02-24 21:20:00,
2013-02-24 12:21:00,-12.4,-16.8,29.59,NNW,335,0.0,0.0,80,0.00,,---,0.00,VWS V14.01,2013-02-24 21:21:00,
2013-02-24 12:23:00,-12.1,-16.8,29.59,NNW,335,0.0,2.0,79,0.00,,---,0.00,VWS V14.01,2013-02-24 21:23:00,
2013-02-24 12:25:00,-11.8,-16.5,29.59,NNW,335,0.0,2.0,79,0.00,,---,0.00,VWS V14.01,2013-02-24 21:25:00,
2013-02-24 12:26:00,-11.8,-16.5,29.59,NNW,335,0.0,2.0,79,0.00,,---,0.00,VWS V14.01,2013-02-24 21:26:00,
2013-02-24 12:28:00,-11.6,-16.3,29.59,NNW,335,1.0,2.0,79,0.00,,---,0.00,VWS V14.01,2013-02-24 21:28:00,
2013-02-24 12:30:00,-11.5,-16.2,29.59,NNW,335,1.0,3.0,79,0.00,,---,0.00,VWS V14.01,2013-02-24 21:30:00,
2013-02-24 12:31:00,-11.5,-16.2,29.59,NNW,335,0.0,3.0,79,0.00,,---,0.00,VWS V14.01,2013-02-24 21:31:00,
2013-02-24 12:33:00,-11.6,-16.5,29.59,NNW,335,0.0,1.0,78,0.00,,---,0.00,VWS V14.01,2013-02-24 21:33:00,
2013-02-24 12:34:00,-11.6,-16.5,29.59,NNW,335,0.0,1.0,78,0.00,,---,0.00,VWS V14.01,2013-02-24 21:34:00,
2013-02-24 12:35:00,-11.5,-16.4,29.59,NNW,335,0.0,3.0,78,0.00,,---,0.00,VWS V14.01,2013-02-24 21:35:00,
2013-02-24 12:36:00,-11.5,-16.4,29.59,NNW,335,0.0,1.0,78,0.00,,---,0.00,VWS V14.01,2013-02-24 21:36:00,
2013-02-24 12:38:00,-11.2,-16.1,29.60,NNW,335,0.0,1.0,78,0.00,,---,0.00,VWS V14.01,2013-02-24 21:38:00,
2013-02-24 12:39:00,-11.2,-16.1,29.60,NNW,335,0.0,1.0,78,0.00,,---,0.00,VWS V14.01,2013-02-24 21:39:00,
2013-02-24 12:40:00,-11.4,-16.3,29.59,NNW,335,0.0,1.0,78,0.00,,---,0.00,VWS V14.01,2013-02-24 21:40:00,
2013-02-24 12:41:00,-10.9,-15.8,29.59,NNW,335,0.0,2.0,78,0.00,,---,0.00,VWS V14.01,2013-02-24 21:41:00,
2013-02-24 12:44:00,-10.8,-15.7,29.59,NNW,335,0.0,2.0,78,0.00,,---,0.00,VWS V14.01,2013-02-24 21:44:00,
2013-02-24 12:45:00,-10.9,-15.8,29.59,NNW,335,0.0,2.0,78,0.00,,---,0.00,VWS V14.01,2013-02-24 21:45:00,
2013-02-24 12:46:00,-10.6,-15.6,29.59,NNW,335,0.0,2.0,78,0.00,,---,0.00,VWS V14.01,2013-02-24 21:46:00,
2013-02-24 12:49:00,-10.3,-15.2,29.59,NNW,335,1.0,3.0,78,0.00,,---,0.00,VWS V14.01,2013-02-24 21:49:00,
2013-02-24 12:50:00,-10.5,-15.4,29.59,NNW,335,0.0,2.0,78,0.00,,---,0.00,VWS V14.01,2013-02-24 21:50:00,
2013-02-24 12:51:00,-10.2,-15.2,29.60,NNW,335,2.0,3.0,78,0.00,,---,0.00,VWS V14.01,2013-02-24 21:51:00,
2013-02-24 12:54:00,-10.0,-15.2,29.60,NNW,335,2.0,3.0,77,0.00,,---,0.00,VWS V14.01,2013-02-24 21:54:00,
2013-02-24 12:55:00,-10.1,-15.1,29.60,NNW,335,1.0,3.0,78,0.00,,---,0.00,VWS V14.01,2013-02-24 21:55:00,
2013-02-24 12:56:00,-9.9,-15.1,29.59,NNW,335,1.0,4.0,77,0.00,,---,0.00,VWS V14.01,2013-02-24 21:56:00,
2013-02-24 12:59:00,-9.8,-15.3,29.59,NNW,335,3.0,4.0,76,0.00,,---,0.00,VWS V14.01,2013-02-24 21:59:00,
2013-02-24 13:00:00,-9.8,-15.3,29.59,NNW,335,3.0,4.0,76,0.00,,---,0.00,VWS V14.01,2013-02-24 22:00:00,
2013-02-24 13:01:00,-9.7,-15.2,29.60,NNW,335,3.0,4.0,76,0.00,,---,0.00,VWS V14.01,2013-02-24 22:01:00,
2013-02-24 13:02:00,-9.7,-15.2,29.60,NNW,332,4.0,4.0,76,0.00,,---,0.00,VWS V14.01,2013-02-24 22:02:00,
2013-02-24 13:04:00,-9.5,-14.7,29.60,NNW,333,1.0,4.0,77,0.00,,---,0.00,VWS V14.01,2013-02-24 22:04:00,
2013-02-24 13:05:00,-9.4,-14.9,29.60,NNW,333,0.0,4.0,76,0.00,,---,0.00,VWS V14.01,2013-02-24 22:05:00,
2013-02-24 13:06:00,-9.3,-14.8,29.60,NNW,333,2.0,4.0,76,0.00,,---,0.00,VWS V14.01,2013-02-24 22:06:00,
2013-02-24 13:07:00,-9.2,-14.4,29.60,NNW,333,0.0,0.0,77,0.00,,---,0.00,VWS V14.01,2013-02-24 22:07:00,
2013-02-24 13:10:00,-8.9,-14.1,29.60,NNW,332,0.0,2.0,77,0.00,,---,0.00,VWS V14.01,2013-02-24 22:10:00,
2013-02-24 13:11:00,-8.8,-14.1,29.60,NNW,333,0.0,2.0,77,0.00,,---,0.00,VWS V14.01,2013-02-24 22:11:00,
2013-02-24 13:12:00,-8.6,-13.9,29.60,NNW,333,0.0,0.0,77,0.00,,---,0.00,VWS V14.01,2013-02-24 22:12:00,
2013-02-24 13:15:00,-8.4,-13.9,29.60,NNW,332,2.0,3.0,76,0.00,,---,0.00,VWS V14.01,2013-02-24 22:15:00,
2013-02-24 13:16:00,-8.3,-13.8,29.60,NNW,333,0.0,3.0,76,0.00,,---,0.00,VWS V14.01,2013-02-24 22:16:00,
2013-02-24 13:17:00,-8.3,-13.8,29.60,NNW,333,2.0,2.0,76,0.00,,---,0.00,VWS V14.01,2013-02-24 22:17:00,
2013-02-24 13:20:00,-8.2,-14.0,29.60,NNW,333,3.0,4.0,75,0.00,,---,0.00,VWS V14.01,2013-02-24 22:20:00,
2013-02-24 13:21:00,-8.2,-14.2,29.60,NNW,333,2.0,4.0,74,0.00,,---,0.00,VWS V14.01,2013-02-24 22:21:00,
2013-02-24 13:22:00,-8.2,-14.2,29.60,NNW,333,2.0,3.0,74,0.00,,---,0.00,VWS V14.01,2013-02-24 22:22:00,
2013-02-24 13:25:00,-8.0,-14.1,29.60,NNW,333,2.0,3.0,74,0.00,,---,0.00,VWS V14.01,2013-02-24 22:25:00,
2013-02-24 13:27:00,-7.9,-14.0,29.60,NNW,333,1.0,3.0,74,0.00,,---,0.00,VWS V14.01,2013-02-24 22:27:00,
2013-02-24 13:28:00,-7.9,-14.0,29.60,NNW,333,1.0,3.0,74,0.00,,---,0.00,VWS V14.01,2013-02-24 22:28:00,
2013-02-24 13:30:00,-7.7,-14.0,29.60,NNW,333,2.0,3.0,73,0.00,,---,0.00,VWS V14.01,2013-02-24 22:30:00,
2013-02-24 13:32:00,-7.6,-13.9,29.61,NNW,333,2.0,2.0,73,0.00,,---,0.00,VWS V14.01,2013-02-24 22:32:00,
2013-02-24 13:33:00,-7.6,-13.9,29.61,NNW,333,2.0,3.0,73,0.00,,---,0.00,VWS V14.01,2013-02-24 22:33:00,
2013-02-24 13:35:00,-7.5,-14.1,29.61,NNW,333,3.0,3.0,72,0.00,,---,0.00,VWS V14.01,2013-02-24 22:35:00,
2013-02-24 13:36:00,-7.4,-14.0,29.61,NNW,333,2.0,4.0,72,0.00,,---,0.00,VWS V14.01,2013-02-24 22:36:00,
2013-02-24 13:37:00,-7.4,-14.0,29.61,NNW,333,3.0,3.0,72,0.00,,---,0.00,VWS V14.01,2013-02-24 22:37:00,
2013-02-24 13:39:00,-7.2,-13.8,29.61,NNW,333,2.0,4.0,72,0.00,,---,0.00,VWS V14.01,2013-02-24 22:39:00,
2013-02-24 13:40:00,-7.1,-14.0,29.61,NNW,333,1.0,4.0,71,0.00,,---,0.00,VWS V14.01,2013-02-24 22:40:00,
2013-02-24 13:41:00,-7.0,-13.9,29.61,NNW,333,2.0,4.0,71,0.00,,---,0.00,VWS V14.01,2013-02-24 22:41:00,
2013-02-24 13:42:00,-7.0,-13.9,29.61,NNW,332,3.0,3.0,71,0.00,,---,0.00,VWS V14.01,2013-02-24 22:42:00,
2013-02-24 13:44:00,-6.8,-13.7,29.61,NNW,333,3.0,3.0,71,0.00,,---,0.00,VWS V14.01,2013-02-24 22:44:00,
2013-02-24 13:45:00,-6.7,-13.6,29.61,NNW,333,0.0,3.0,71,0.00,,---,0.00,VWS V14.01,2013-02-24 22:45:00,
2013-02-24 13:47:00,-6.5,-13.4,29.61,NNW,332,2.0,3.0,71,0.00,,---,0.00,VWS V14.01,2013-02-24 22:47:00,
2013-02-24 13:49:00,-6.2,-13.4,29.61,NNW,333,2.0,3.0,70,0.00,,---,0.00,VWS V14.01,2013-02-24 22:49:00,
2013-02-24 13:50:00,-6.1,-13.3,29.61,NNW,332,2.0,3.0,70,0.00,,---,0.00,VWS V14.01,2013-02-24 22:50:00,
2013-02-24 13:52:00,-5.9,-13.1,29.61,NNW,333,0.0,0.0,70,0.00,,---,0.00,VWS V14.01,2013-02-24 22:52:00,
2013-02-24 13:54:00,-5.7,-13.2,29.61,NNW,333,2.0,3.0,69,0.00,,---,0.00,VWS V14.01,2013-02-24 22:54:00,
2013-02-24 13:55:00,-5.6,-13.1,29.61,NNW,332,0.0,3.0,69,0.00,,---,0.00,VWS V14.01,2013-02-24 22:55:00,
2013-02-24 13:57:00,-5.4,-12.9,29.61,NNW,332,2.0,3.0,69,0.00,,---,0.00,VWS V14.01,2013-02-24 22:57:00,
2013-02-24 13:59:00,-5.3,-13.1,29.61,NNW,332,2.0,5.0,68,0.00,,---,0.00,VWS V14.01,2013-02-24 22:59:00,
2013-02-24 14:00:00,-5.3,-13.1,29.61,NNW,332,3.0,5.0,68,0.00,,---,0.00,VWS V14.01,2013-02-24 23:00:00,
2013-02-24 14:02:00,-5.2,-13.0,29.61,NNW,332,2.0,5.0,68,0.00,,---,0.00,VWS V14.01,2013-02-24 23:02:00,
2013-02-24 14:03:00,-5.1,-13.2,29.61,NNW,332,0.0,3.0,67,0.00,,---,0.00,VWS V14.01,2013-02-24 23:03:00,
2013-02-24 14:05:00,-5.0,-13.1,29.61,NNW,332,0.0,3.0,67,0.00,,---,0.00,VWS V14.01,2013-02-24 23:05:00,
2013-02-24 14:07:00,-4.9,-13.0,29.61,NNW,332,3.0,3.0,67,0.00,,---,0.00,VWS V14.01,2013-02-24 23:07:00,
2013-02-24 14:08:00,-4.8,-13.2,29.61,NNW,332,2.0,4.0,66,0.00,,---,0.00,VWS V14.01,2013-02-24 23:08:00,
2013-02-24 14:10:00,-4.8,-13.2,29.61,NNW,332,0.0,4.0,66,0.00,,---,0.00,VWS V14.01,2013-02-24 23:10:00,
2013-02-24 14:12:00,-4.8,-13.6,29.61,NNW,332,2.0,3.0,65,0.00,,---,0.00,VWS V14.01,2013-02-24 23:12:00,
2013-02-24 14:13:00,-4.9,-13.6,29.61,NNW,332,0.0,3.0,65,0.00,,---,0.00,VWS V14.01,2013-02-24 23:13:00,
2013-02-24 14:15:00,-4.9,-13.6,29.61,NNW,332,1.0,3.0,65,0.00,,---,0.00,VWS V14.01,2013-02-24 23:15:00,
2013-02-24 14:16:00,-4.9,-13.6,29.61,NNW,332,2.0,3.0,65,0.00,,---,0.00,VWS V14.01,2013-02-24 23:16:00,
2013-02-24 14:17:00,-4.9,-13.6,29.61,NNW,332,1.0,3.0,65,0.00,,---,0.00,VWS V14.01,2013-02-24 23:17:00,
2013-02-24 14:18:00,-4.9,-13.6,29.61,NNW,332,2.0,3.0,65,0.00,,---,0.00,VWS V14.01,2013-02-24 23:18:00,
2013-02-24 14:20:00,-4.8,-13.6,29.61,NNW,332,0.0,4.0,65,0.00,,---,0.00,VWS V14.01,2013-02-24 23:20:00,
2013-02-24 14:21:00,-4.8,-13.6,29.61,NNW,332,0.0,4.0,65,0.00,,---,0.00,VWS V14.01,2013-02-24 23:21:00,
2013-02-24 14:23:00,-4.6,-13.4,29.61,NNW,332,0.0,2.0,65,0.00,,---,0.00,VWS V14.01,2013-02-24 23:23:00,
2013-02-24 14:24:00,-4.6,-13.4,29.61,NNW,332,3.0,3.0,65,0.00,,---,0.00,VWS V14.01,2013-02-24 23:24:00,
2013-02-24 14:25:00,-4.7,-13.4,29.61,NNW,332,1.0,4.0,65,0.00,,---,0.00,VWS V14.01,2013-02-24 23:25:00,
2013-02-24 14:26:00,-4.5,-13.3,29.61,NNW,332,1.0,3.0,65,0.00,,---,0.00,VWS V14.01,2013-02-24 23:26:00,
2013-02-24 14:28:00,-4.4,-13.2,29.61,NNW,332,2.0,3.0,65,0.00,,---,0.00,VWS V14.01,2013-02-24 23:28:00,
2013-02-24 14:29:00,-4.4,-13.2,29.61,NNW,332,3.0,3.0,65,0.00,,---,0.00,VWS V14.01,2013-02-24 23:29:00,
2013-02-24 14:30:00,-4.5,-13.3,29.61,NNW,332,3.0,4.0,65,0.00,,---,0.00,VWS V14.01,2013-02-24 23:30:00,
2013-02-24 14:31:00,-4.3,-13.1,29.61,NNW,332,3.0,4.0,65,0.00,,---,0.00,VWS V14.01,2013-02-24 23:31:00,
2013-02-24 14:33:00,-4.2,-13.0,29.61,NNW,332,1.0,4.0,65,0.00,,---,0.00,VWS V14.01,2013-02-24 23:33:00,
2013-02-24 14:34:00,-4.2,-13.0,29.61,NNW,332,2.0,4.0,65,0.00,,---,0.00,VWS V14.01,2013-02-24 23:34:00,
2013-02-24 14:35:00,-4.2,-13.0,29.61,NNW,332,3.0,4.0,65,0.00,,---,0.00,VWS V14.01,2013-02-24 23:35:00,
2013-02-24 14:36:00,-4.2,-13.0,29.61,NNW,332,4.0,4.0,65,0.00,,---,0.00,VWS V14.01,2013-02-24 23:36:00,
2013-02-24 14:38:00,-4.1,-13.2,29.61,NNW,332,1.0,4.0,64,0.00,,---,0.00,VWS V14.01,2013-02-24 23:38:00,
2013-02-24 14:39:00,-4.1,-13.2,29.61,NNW,332,0.0,4.0,64,0.00,,---,0.00,VWS V14.01,2013-02-24 23:39:00,
2013-02-24 14:40:00,-4.1,-12.9,29.61,NNW,332,4.0,4.0,65,0.00,,---,0.00,VWS V14.01,2013-02-24 23:40:00,
2013-02-24 14:41:00,-4.0,-13.1,29.61,NNW,332,1.0,4.0,64,0.00,,---,0.00,VWS V14.01,2013-02-24 23:41:00,
2013-02-24 14:42:00,-4.0,-13.1,29.61,NNW,332,2.0,2.0,64,0.00,,---,0.00,VWS V14.01,2013-02-24 23:42:00,
2013-02-24 14:43:00,-3.9,-13.0,29.61,NNW,332,3.0,4.0,64,0.00,,---,0.00,VWS V14.01,2013-02-24 23:43:00,
2013-02-24 14:45:00,-3.9,-13.0,29.61,NNW,332,0.0,4.0,64,0.00,,---,0.00,VWS V14.01,2013-02-24 23:45:00,
2013-02-24 14:46:00,-3.8,-12.9,29.61,NNW,332,0.0,4.0,64,0.00,,---,0.00,VWS V14.01,2013-02-24 23:46:00,
2013-02-24 14:47:00,-3.8,-12.9,29.61,NNW,332,0.0,0.0,64,0.00,,---,0.00,VWS V14.01,2013-02-24 23:47:00,
2013-02-24 14:49:00,-3.7,-12.8,29.61,NNW,332,1.0,3.0,64,0.00,,---,0.00,VWS V14.01,2013-02-24 23:49:00,
2013-02-24 14:50:00,-3.7,-12.8,29.61,NNW,332,1.0,3.0,64,0.00,,---,0.00,VWS V14.01,2013-02-24 23:50:00,
2013-02-24 14:51:00,-3.5,-12.9,29.61,NNW,332,1.0,3.0,63,0.00,,---,0.00,VWS V14.01,2013-02-24 23:51:00,
2013-02-24 14:52:00,-3.5,-12.9,29.61,NNW,332,0.0,2.0,63,0.00,,---,0.00,VWS V14.01,2013-02-24 23:52:00,
2013-02-24 14:54:00,-3.4,-12.8,29.61,NNW,332,3.0,3.0,63,0.00,,---,0.00,VWS V14.01,2013-02-24 23:54:00,
2013-02-24 14:55:00,-3.4,-12.8,29.61,NNW,332,3.0,3.0,63,0.00,,---,0.00,VWS V14.01,2013-02-24 23:55:00,
2013-02-24 14:56:00,-3.4,-12.8,29.61,NNW,332,0.0,4.0,63,0.00,,---,0.00,VWS V14.01,2013-02-24 23:56:00,
2013-02-24 14:57:00,-3.4,-12.8,29.61,NNW,332,0.0,2.0,63,0.00,,---,0.00,VWS V14.01,2013-02-24 23:57:00,
2013-02-24 14:59:00,-3.3,-12.7,29.61,NNW,332,0.0,2.0,63,0.00,,---,0.00,VWS V14.01,2013-02-24 23:59:00,
2013-02-24 15:00:00,-3.2,-12.6,29.61,NNW,332,0.0,2.0,63,0.00,,---,0.00,VWS V14.01,2013-02-25 00:00:00,
2013-02-24 15:01:00,-3.2,-12.6,29.61,NNW,332,0.0,2.0,63,0.00,,---,0.00,VWS V14.01,2013-02-25 00:01:00,
2013-02-24 15:02:00,-3.2,-12.6,29.61,NNW,332,1.0,2.0,63,0.00,,---,0.00,VWS V14.01,2013-02-25 00:02:00,
2013-02-24 15:04:00,-3.1,-12.5,29.61,NNW,332,1.0,2.0,63,0.00,,---,0.00,VWS V14.01,2013-02-25 00:04:00,
2013-02-24 15:05:00,-3.1,-12.5,29.61,NNW,332,2.0,2.0,63,0.00,,---,0.00,VWS V14.01,2013-02-25 00:05:00,
2013-02-24 15:07:00,-3.0,-12.4,29.61,NNW,332,0.0,0.0,63,0.00,,---,0.00,VWS V14.01,2013-02-25 00:07:00,
2013-02-24 15:10:00,-3.0,-12.8,29.61,NNW,332,0.0,3.0,62,0.00,,---,0.00,VWS V14.01,2013-02-25 00:10:00,
2013-02-24 15:12:00,-2.9,-12.7,29.61,NNW,332,0.0,0.0,62,0.00,,---,0.00,VWS V14.01,2013-02-25 00:12:00,
2013-02-24 15:15:00,-2.7,-12.5,29.61,NNW,332,0.0,0.0,62,0.00,,---,0.00,VWS V14.01,2013-02-25 00:15:00,
2013-02-24 15:17:00,-2.6,-12.4,29.61,NNW,332,0.0,0.0,62,0.00,,---,0.00,VWS V14.01,2013-02-25 00:17:00,
2013-02-24 15:20:00,-2.5,-12.3,29.61,NNW,332,0.0,0.0,62,0.00,,---,0.00,VWS V14.01,2013-02-25 00:20:00,
2013-02-24 15:22:00,-2.4,-12.2,29.61,NNW,332,0.0,0.0,62,0.00,,---,0.00,VWS V14.01,2013-02-25 00:22:00,
2013-02-24 15:25:00,-2.3,-12.1,29.61,NNW,332,0.0,0.0,62,0.00,,---,0.00,VWS V14.01,2013-02-25 00:25:00,
2013-02-24 15:27:00,-2.2,-12.0,29.61,NNW,332,0.0,0.0,62,0.00,,---,0.00,VWS V14.01,2013-02-25 00:27:00,
2013-02-24 15:30:00,-2.0,-12.1,29.62,NNW,332,0.0,2.0,61,0.00,,---,0.00,VWS V14.01,2013-02-25 00:30:00,
2013-02-24 15:31:00,-2.0,-12.1,29.61,NNW,332,0.0,2.0,61,0.00,,---,0.00,VWS V14.01,2013-02-25 00:31:00,
2013-02-24 15:32:00,-2.0,-12.5,29.62,NNW,332,1.0,2.0,60,0.00,,---,0.00,VWS V14.01,2013-02-25 00:32:00,
2013-02-24 15:35:00,-2.2,-13.0,29.62,NNW,333,0.0,4.0,59,0.00,,---,0.00,VWS V14.01,2013-02-25 00:35:00,
2013-02-24 15:36:00,-2.2,-13.0,29.62,NNW,333,1.0,4.0,59,0.00,,---,0.00,VWS V14.01,2013-02-25 00:36:00,
2013-02-24 15:37:00,-2.2,-13.0,29.62,NNW,333,2.0,3.0,59,0.00,,---,0.00,VWS V14.01,2013-02-25 00:37:00,
2013-02-24 15:38:00,-2.3,-13.1,29.62,NNW,333,0.0,3.0,59,0.00,,---,0.00,VWS V14.01,2013-02-25 00:38:00,
2013-02-24 15:40:00,-2.4,-13.2,29.62,NNW,333,1.0,3.0,59,0.00,,---,0.00,VWS V14.01,2013-02-25 00:40:00,
2013-02-24 15:41:00,-2.4,-13.2,29.62,NNW,333,0.0,3.0,59,0.00,,---,0.00,VWS V14.01,2013-02-25 00:41:00,
2013-02-24 15:42:00,-2.5,-13.3,29.62,NNW,333,0.0,2.0,59,0.00,,---,0.00,VWS V14.01,2013-02-25 00:42:00,
2013-02-24 15:43:00,-2.5,-13.3,29.62,NNW,333,2.0,3.0,59,0.00,,---,0.00,VWS V14.01,2013-02-25 00:43:00,
2013-02-24 15:45:00,-2.5,-13.3,29.62,NNW,333,2.0,3.0,59,0.00,,---,0.00,VWS V14.01,2013-02-25 00:45:00,
2013-02-24 15:46:00,-2.6,-13.4,29.62,NNW,333,3.0,3.0,59,0.00,,---,0.00,VWS V14.01,2013-02-25 00:46:00,
2013-02-24 15:48:00,-2.8,-13.6,29.62,NNW,333,2.0,3.0,59,0.00,,---,0.00,VWS V14.01,2013-02-25 00:48:00,
2013-02-24 15:50:00,-2.7,-13.5,29.62,NNW,333,1.0,3.0,59,0.00,,---,0.00,VWS V14.01,2013-02-25 00:50:00,
2013-02-24 15:51:00,-3.0,-14.1,29.62,NNW,333,0.0,3.0,58,0.00,,---,0.00,VWS V14.01,2013-02-25 00:51:00,
2013-02-24 15:53:00,-3.1,-13.9,29.62,NNW,333,2.0,3.0,59,0.00,,---,0.00,VWS V14.01,2013-02-25 00:53:00,
2013-02-24 15:55:00,-3.0,-13.8,29.62,NNW,333,1.0,3.0,59,0.00,,---,0.00,VWS V14.01,2013-02-25 00:55:00,
2013-02-24 15:56:00,-3.2,-13.9,29.62,NNW,333,1.0,3.0,59,0.00,,---,0.00,VWS V14.01,2013-02-25 00:56:00,
2013-02-24 15:57:00,-3.2,-14.3,29.62,NNW,333,0.0,3.0,58,0.00,,---,0.00,VWS V14.01,2013-02-25 00:57:00,
2013-02-24 15:58:00,-3.3,-14.0,29.63,NNW,333,1.0,3.0,59,0.00,,---,0.00,VWS V14.01,2013-02-25 00:58:00,
2013-02-24 15:59:00,-3.3,-14.0,29.63,NNW,333,0.0,3.0,59,0.00,,---,0.00,VWS V14.01,2013-02-25 00:59:00,
2013-02-24 16:00:00,-3.2,-14.3,29.62,NNW,333,0.0,3.0,58,0.00,,---,0.00,VWS V14.01,2013-02-25 01:00:00,
2013-02-24 16:01:00,-3.2,-13.9,29.63,NNW,333,0.0,3.0,59,0.00,,---,0.00,VWS V14.01,2013-02-25 01:01:00,
2013-02-24 16:02:00,-3.3,-14.0,29.63,NNW,333,0.0,3.0,59,0.00,,---,0.00,VWS V14.01,2013-02-25 01:02:00,
2013-02-24 16:03:00,-3.2,-13.9,29.63,NNW,333,0.0,1.0,59,0.00,,---,0.00,VWS V14.01,2013-02-25 01:03:00,
2013-02-24 16:04:00,-3.2,-13.9,29.63,NNW,333,0.0,1.0,59,0.00,,---,0.00,VWS V14.01,2013-02-25 01:04:00,
2013-02-24 16:05:00,-3.3,-14.0,29.63,NNW,333,0.0,3.0,59,0.00,,---,0.00,VWS V14.01,2013-02-25 01:05:00,
2013-02-24 16:07:00,-3.1,-13.9,29.63,NNW,333,0.0,0.0,59,0.00,,---,0.00,VWS V14.01,2013-02-25 01:07:00,
2013-02-24 16:08:00,-3.1,-13.9,29.63,NNW,333,0.0,0.0,59,0.00,,---,0.00,VWS V14.01,2013-02-25 01:08:00,
2013-02-24 16:09:00,-3.1,-13.9,29.63,NNW,333,0.0,0.0,59,0.00,,---,0.00,VWS V14.01,2013-02-25 01:09:00,
2013-02-24 16:10:00,-3.1,-13.9,29.63,NNW,333,0.0,2.0,59,0.00,,---,0.00,VWS V14.01,2013-02-25 01:10:00,
2013-02-24 16:12:00,-3.1,-13.9,29.63,NNW,333,0.0,0.0,59,0.00,,---,0.00,VWS V14.01,2013-02-25 01:12:00,
2013-02-24 16:13:00,-3.0,-13.8,29.63,NNW,333,1.0,2.0,59,0.00,,---,0.00,VWS V14.01,2013-02-25 01:13:00,
2013-02-24 16:14:00,-3.0,-13.8,29.63,NNW,333,2.0,2.0,59,0.00,,---,0.00,VWS V14.01,2013-02-25 01:14:00,
2013-02-24 16:15:00,-3.1,-13.9,29.63,NNW,333,0.0,0.0,59,0.00,,---,0.00,VWS V14.01,2013-02-25 01:15:00,
2013-02-24 16:17:00,-3.0,-13.8,29.63,NNW,333,0.0,0.0,59,0.00,,---,0.00,VWS V14.01,2013-02-25 01:17:00,
2013-02-24 16:18:00,-2.9,-13.7,29.63,NNW,333,0.0,0.0,59,0.00,,---,0.00,VWS V14.01,2013-02-25 01:18:00,
2013-02-24 16:19:00,-2.9,-13.7,29.63,NNW,333,0.0,0.0,59,0.00,,---,0.00,VWS V14.01,2013-02-25 01:19:00,
2013-02-24 16:20:00,-2.9,-14.0,29.63,NNW,333,1.0,2.0,58,0.00,,---,0.00,VWS V14.01,2013-02-25 01:20:00,
2013-02-24 16:22:00,-2.8,-13.6,29.63,NNW,333,1.0,2.0,59,0.00,,---,0.00,VWS V14.01,2013-02-25 01:22:00,
2013-02-24 16:23:00,-2.8,-13.9,29.63,NNW,333,0.0,2.0,58,0.00,,---,0.00,VWS V14.01,2013-02-25 01:23:00,
2013-02-24 16:24:00,-2.8,-13.9,29.63,NNW,333,0.0,2.0,58,0.00,,---,0.00,VWS V14.01,2013-02-25 01:24:00,
2013-02-24 16:25:00,-2.8,-13.9,29.63,NNW,333,1.0,2.0,58,0.00,,---,0.00,VWS V14.01,2013-02-25 01:25:00,
2013-02-24 16:27:00,-2.8,-13.9,29.63,NNW,333,0.0,0.0,58,0.00,,---,0.00,VWS V14.01,2013-02-25 01:27:00,
2013-02-24 16:28:00,-2.8,-13.9,29.63,NNW,333,0.0,1.0,58,0.00,,---,0.00,VWS V14.01,2013-02-25 01:28:00,
2013-02-24 16:29:00,-2.8,-13.9,29.63,NNW,333,0.0,1.0,58,0.00,,---,0.00,VWS V14.01,2013-02-25 01:29:00,
2013-02-24 16:30:00,-2.9,-14.0,29.63,NNW,333,0.0,1.0,58,0.00,,---,0.00,VWS V14.01,2013-02-25 01:30:00,
2013-02-24 16:32:00,-2.9,-14.0,29.63,NNW,333,2.0,2.0,58,0.00,,---,0.00,VWS V14.01,2013-02-25 01:32:00,
2013-02-24 16:33:00,-2.9,-14.0,29.63,NNW,333,0.0,2.0,58,0.00,,---,0.00,VWS V14.01,2013-02-25 01:33:00,
2013-02-24 16:34:00,-2.9,-14.0,29.63,NNW,333,2.0,2.0,58,0.00,,---,0.00,VWS V14.01,2013-02-25 01:34:00,
2013-02-24 16:35:00,-3.0,-14.1,29.63,NNW,333,2.0,2.0,58,0.00,,---,0.00,VWS V14.01,2013-02-25 01:35:00,
2013-02-24 16:37:00,-3.0,-14.1,29.63,NNW,333,1.0,2.0,58,0.00,,---,0.00,VWS V14.01,2013-02-25 01:37:00,
2013-02-24 16:38:00,-3.1,-14.2,29.63,NNW,333,0.0,2.0,58,0.00,,---,0.00,VWS V14.01,2013-02-25 01:38:00,
2013-02-24 16:39:00,-3.1,-14.2,29.63,NNW,333,0.0,2.0,58,0.00,,---,0.00,VWS V14.01,2013-02-25 01:39:00,
2013-02-24 16:40:00,-3.1,-14.2,29.63,NNW,333,0.0,2.0,58,0.00,,---,0.00,VWS V14.01,2013-02-25 01:40:00,
2013-02-24 16:42:00,-3.1,-14.2,29.63,NNW,333,0.0,0.0,58,0.00,,---,0.00,VWS V14.01,2013-02-25 01:42:00,
2013-02-24 16:43:00,-3.1,-14.2,29.63,NNW,333,0.0,0.0,58,0.00,,---,0.00,VWS V14.01,2013-02-25 01:43:00,
2013-02-24 16:44:00,-3.1,-14.2,29.63,NNW,333,0.0,0.0,58,0.00,,---,0.00,VWS V14.01,2013-02-25 01:44:00,
2013-02-24 16:45:00,-3.1,-14.2,29.63,NNW,333,0.0,0.0,58,0.00,,---,0.00,VWS V14.01,2013-02-25 01:45:00,
2013-02-24 16:47:00,-3.1,-14.2,29.63,NNW,333,0.0,0.0,58,0.00,,---,0.00,VWS V14.01,2013-02-25 01:47:00,
2013-02-24 16:49:00,-3.0,-14.1,29.63,NNW,333,0.0,0.0,58,0.00,,---,0.00,VWS V14.01,2013-02-25 01:49:00,
2013-02-24 16:50:00,-2.9,-14.0,29.63,NNW,333,0.0,0.0,58,0.00,,---,0.00,VWS V14.01,2013-02-25 01:50:00,
2013-02-24 16:52:00,-2.8,-13.9,29.63,NNW,333,1.0,2.0,58,0.00,,---,0.00,VWS V14.01,2013-02-25 01:52:00,
2013-02-24 16:54:00,-2.8,-13.9,29.63,NNW,333,0.0,2.0,58,0.00,,---,0.00,VWS V14.01,2013-02-25 01:54:00,
2013-02-24 16:55:00,-2.9,-14.0,29.63,NNW,333,1.0,1.0,58,0.00,,---,0.00,VWS V14.01,2013-02-25 01:55:00,
2013-02-24 16:57:00,-2.8,-13.9,29.63,NNW,333,0.0,1.0,58,0.00,,---,0.00,VWS V14.01,2013-02-25 01:57:00,
2013-02-24 16:59:00,-2.9,-14.0,29.63,NNW,333,0.0,2.0,58,0.00,,---,0.00,VWS V14.01,2013-02-25 01:59:00,
2013-02-24 17:00:00,-2.8,-13.9,29.63,NNW,333,2.0,2.0,58,0.00,,---,0.00,VWS V14.01,2013-02-25 02:00:00,
2013-02-24 17:02:00,-2.9,-14.3,29.63,NNW,333,0.0,0.0,57,0.00,,---,0.00,VWS V14.01,2013-02-25 02:02:00,
2013-02-24 17:03:00,-3.0,-14.4,29.63,NNW,333,0.0,2.0,57,0.00,,---,0.00,VWS V14.01,2013-02-25 02:03:00,
2013-02-24 17:05:00,-3.0,-14.4,29.63,NNW,333,0.0,2.0,57,0.00,,---,0.00,VWS V14.01,2013-02-25 02:05:00,
2013-02-24 17:07:00,-3.2,-14.3,29.63,NNW,333,0.0,1.0,58,0.00,,---,0.00,VWS V14.01,2013-02-25 02:07:00,
2013-02-24 17:08:00,-3.3,-14.4,29.64,NNW,333,0.0,1.0,58,0.00,,---,0.00,VWS V14.01,2013-02-25 02:08:00,
2013-02-24 17:10:00,-3.5,-14.6,29.64,NNW,333,0.0,2.0,58,0.00,,---,0.00,VWS V14.01,2013-02-25 02:10:00,
2013-02-24 17:13:00,-3.7,-14.8,29.64,NNW,333,2.0,2.0,58,0.00,,---,0.00,VWS V14.01,2013-02-25 02:13:00,
2013-02-24 17:15:00,-3.9,-14.9,29.64,NNW,333,0.0,2.0,58,0.00,,---,0.00,VWS V14.01,2013-02-25 02:15:00,
2013-02-24 17:18:00,-4.2,-15.2,29.64,NNW,333,0.0,3.0,58,0.00,,---,0.00,VWS V14.01,2013-02-25 02:18:00,
2013-02-24 17:20:00,-4.6,-15.3,29.64,NNW,333,2.0,3.0,59,0.00,,---,0.00,VWS V14.01,2013-02-25 02:20:00,
2013-02-24 17:24:00,-5.1,-15.4,29.64,NNW,333,0.0,0.0,60,0.00,,---,0.00,VWS V14.01,2013-02-25 02:24:00,
2013-02-24 17:25:00,-5.2,-15.5,29.64,NNW,333,0.0,0.0,60,0.00,,---,0.00,VWS V14.01,2013-02-25 02:25:00,
2013-02-24 17:26:00,-5.3,-15.6,29.64,NNW,333,0.0,0.0,60,0.00,,---,0.00,VWS V14.01,2013-02-25 02:26:00,
2013-02-24 17:29:00,-6.3,-17.2,29.64,SSE,159,0.0,2.0,58,0.00,,---,0.00,VWS V14.01,2013-02-25 02:29:00,
2013-02-24 17:30:00,-6.4,-17.0,29.64,SSE,159,1.0,2.0,59,0.00,,---,0.00,VWS V14.01,2013-02-25 02:30:00,
2013-02-24 17:32:00,-6.4,-17.0,29.64,SSE,160,1.0,2.0,59,0.00,,---,0.00,VWS V14.01,2013-02-25 02:32:00,
2013-02-24 17:34:00,-6.4,-17.0,29.64,SSE,161,2.0,2.0,59,0.00,,---,0.00,VWS V14.01,2013-02-25 02:34:00,
2013-02-24 17:35:00,-6.4,-17.0,29.64,SSE,161,1.0,2.0,59,0.00,,---,0.00,VWS V14.01,2013-02-25 02:35:00,
2013-02-24 17:37:00,-6.5,-17.1,29.64,SSE,161,0.0,0.0,59,0.00,,---,0.00,VWS V14.01,2013-02-25 02:37:00,
2013-02-24 17:39:00,-6.5,-17.1,29.64,SSE,161,0.0,1.0,59,0.00,,---,0.00,VWS V14.01,2013-02-25 02:39:00,
2013-02-24 17:40:00,-6.5,-17.1,29.64,SSE,161,1.0,2.0,59,0.00,,---,0.00,VWS V14.01,2013-02-25 02:40:00,
2013-02-24 17:42:00,-6.5,-17.1,29.64,SSE,167,2.0,4.0,59,0.00,,---,0.00,VWS V14.01,2013-02-25 02:42:00,
2013-02-24 17:44:00,-6.6,-17.2,29.64,South,169,2.0,4.0,59,0.00,,---,0.00,VWS V14.01,2013-02-25 02:44:00,
2013-02-24 17:45:00,-6.7,-17.3,29.65,South,169,1.0,4.0,59,0.00,,---,0.00,VWS V14.01,2013-02-25 02:45:00,
2013-02-24 17:46:00,-6.7,-17.3,29.65,South,169,2.0,4.0,59,0.00,,---,0.00,VWS V14.01,2013-02-25 02:46:00,
2013-02-24 17:47:00,-6.8,-17.4,29.65,South,169,0.0,2.0,59,0.00,,---,0.00,VWS V14.01,2013-02-25 02:47:00,
2013-02-24 17:49:00,-7.0,-17.5,29.65,South,169,1.0,2.0,59,0.00,,---,0.00,VWS V14.01,2013-02-25 02:49:00,
2013-02-24 17:50:00,-7.1,-17.6,29.65,South,169,1.0,2.0,59,0.00,,---,0.00,VWS V14.01,2013-02-25 02:50:00,
2013-02-24 17:51:00,-7.1,-17.6,29.65,South,169,1.0,2.0,59,0.00,,---,0.00,VWS V14.01,2013-02-25 02:51:00,
2013-02-24 17:52:00,-7.2,-17.7,29.65,South,169,1.0,2.0,59,0.00,,---,0.00,VWS V14.01,2013-02-25 02:52:00,
2013-02-24 17:55:00,-7.4,-17.9,29.65,South,171,0.0,2.0,59,0.00,,---,0.00,VWS V14.01,2013-02-25 02:55:00,
2013-02-24 17:56:00,-7.5,-17.7,29.65,South,171,2.0,2.0,60,0.00,,---,0.00,VWS V14.01,2013-02-25 02:56:00,
2013-02-24 17:57:00,-7.5,-17.7,29.65,South,171,1.0,1.0,60,0.00,,---,0.00,VWS V14.01,2013-02-25 02:57:00,
2013-02-24 18:00:00,-7.7,-17.9,29.65,South,171,0.0,1.0,60,0.00,,---,0.00,VWS V14.01,2013-02-25 03:00:00,
2013-02-24 18:01:00,-7.7,-17.9,29.65,South,171,0.0,1.0,60,0.00,,---,0.00,VWS V14.01,2013-02-25 03:01:00,
2013-02-24 18:02:00,-7.7,-17.9,29.65,South,171,1.0,1.0,60,0.00,,---,0.00,VWS V14.01,2013-02-25 03:02:00,
2013-02-24 18:05:00,-7.9,-18.1,29.65,South,171,0.0,1.0,60,0.00,,---,0.00,VWS V14.01,2013-02-25 03:05:00,
2013-02-24 18:06:00,-7.8,-18.0,29.65,South,171,1.0,1.0,60,0.00,,---,0.00,VWS V14.01,2013-02-25 03:06:00,
2013-02-24 18:07:00,-7.9,-18.1,29.65,South,171,0.0,1.0,60,0.00,,---,0.00,VWS V14.01,2013-02-25 03:07:00,
2013-02-24 18:10:00,-8.0,-17.8,29.65,South,171,1.0,1.0,61,0.00,,---,0.00,VWS V14.01,2013-02-25 03:10:00,
2013-02-24 18:11:00,-8.1,-17.9,29.65,South,171,0.0,1.0,61,0.00,,---,0.00,VWS V14.01,2013-02-25 03:11:00,
2013-02-24 18:12:00,-8.1,-17.9,29.65,South,171,0.0,1.0,61,0.00,,---,0.00,VWS V14.01,2013-02-25 03:12:00,
2013-02-24 18:15:00,-8.1,-17.9,29.65,South,171,0.0,1.0,61,0.00,,---,0.00,VWS V14.01,2013-02-25 03:15:00,
2013-02-24 18:16:00,-8.2,-18.0,29.65,South,171,0.0,1.0,61,0.00,,---,0.00,VWS V14.01,2013-02-25 03:16:00,
2013-02-24 18:17:00,-8.1,-17.9,29.65,South,171,0.0,0.0,61,0.00,,---,0.00,VWS V14.01,2013-02-25 03:17:00,
2013-02-24 18:20:00,-8.1,-17.9,29.65,South,171,0.0,1.0,61,0.00,,---,0.00,VWS V14.01,2013-02-25 03:20:00,
2013-02-24 18:21:00,-8.2,-18.0,29.65,South,171,0.0,1.0,61,0.00,,---,0.00,VWS V14.01,2013-02-25 03:21:00,
2013-02-24 18:22:00,-8.4,-18.2,29.65,South,171,0.0,0.0,61,0.00,,---,0.00,VWS V14.01,2013-02-25 03:22:00,
2013-02-24 18:25:00,-8.3,-18.1,29.65,South,171,0.0,1.0,61,0.00,,---,0.00,VWS V14.01,2013-02-25 03:25:00,
2013-02-24 18:26:00,-9.0,-18.8,29.65,South,171,0.0,0.0,61,0.00,,---,0.00,VWS V14.01,2013-02-25 03:26:00,
2013-02-24 18:27:00,-9.1,-18.9,29.65,South,171,0.0,0.0,61,0.00,,---,0.00,VWS V14.01,2013-02-25 03:27:00,
2013-02-24 18:30:00,-9.1,-18.9,29.65,South,171,0.0,0.0,61,0.00,,---,0.00,VWS V14.01,2013-02-25 03:30:00,
2013-02-24 18:31:00,-10.1,-19.8,29.65,South,171,0.0,0.0,61,0.00,,---,0.00,VWS V14.01,2013-02-25 03:31:00,
2013-02-24 18:32:00,-10.3,-20.4,29.65,South,171,0.0,0.0,60,0.00,,---,0.00,VWS V14.01,2013-02-25 03:32:00,
2013-02-24 18:33:00,-10.5,-20.5,29.65,South,171,0.0,0.0,60,0.00,,---,0.00,VWS V14.01,2013-02-25 03:33:00,
2013-02-24 18:35:00,-10.3,-20.0,29.65,South,171,0.0,0.0,61,0.00,,---,0.00,VWS V14.01,2013-02-25 03:35:00,
2013-02-24 18:36:00,-11.5,-21.5,29.66,South,171,0.0,0.0,60,0.00,,---,0.00,VWS V14.01,2013-02-25 03:36:00,
2013-02-24 18:37:00,-11.6,-21.3,29.66,South,171,0.0,0.0,61,0.00,,---,0.00,VWS V14.01,2013-02-25 03:37:00,
2013-02-24 18:38:00,-11.8,-21.5,29.66,South,171,0.0,0.0,61,0.00,,---,0.00,VWS V14.01,2013-02-25 03:38:00,
2013-02-24 18:40:00,-11.5,-21.5,29.66,South,171,0.0,0.0,60,0.00,,---,0.00,VWS V14.01,2013-02-25 03:40:00,
2013-02-24 18:42:00,-12.7,-22.3,29.66,South,171,0.0,0.0,61,0.00,,---,0.00,VWS V14.01,2013-02-25 03:42:00,
2013-02-24 18:43:00,-12.8,-22.1,29.66,South,171,0.0,0.0,62,0.00,,---,0.00,VWS V14.01,2013-02-25 03:43:00,
2013-02-24 18:45:00,-12.7,-22.3,29.66,South,171,0.0,0.0,61,0.00,,---,0.00,VWS V14.01,2013-02-25 03:45:00,
2013-02-24 18:47:00,-13.7,-22.7,29.66,South,171,0.0,0.0,63,0.00,,---,0.00,VWS V14.01,2013-02-25 03:47:00,
2013-02-24 18:48:00,-13.9,-22.9,29.66,South,171,0.0,0.0,63,0.00,,---,0.00,VWS V14.01,2013-02-25 03:48:00,
2013-02-24 18:50:00,-13.6,-22.6,29.66,South,171,0.0,0.0,63,0.00,,---,0.00,VWS V14.01,2013-02-25 03:50:00,
2013-02-24 18:52:00,-14.8,-23.1,29.66,South,184,0.0,1.0,65,0.00,,---,0.00,VWS V14.01,2013-02-25 03:52:00,
2013-02-24 18:53:00,-14.9,-22.9,29.66,South,184,0.0,1.0,66,0.00,,---,0.00,VWS V14.01,2013-02-25 03:53:00,
2013-02-24 18:55:00,-14.7,-23.0,29.66,South,183,1.0,1.0,65,0.00,,---,0.00,VWS V14.01,2013-02-25 03:55:00,
2013-02-24 18:57:00,-15.9,-23.6,29.66,South,186,1.0,1.0,67,0.00,,---,0.00,VWS V14.01,2013-02-25 03:57:00,
2013-02-24 18:58:00,-16.0,-23.7,29.66,South,186,0.0,1.0,67,0.00,,---,0.00,VWS V14.01,2013-02-25 03:58:00,
2013-02-24 19:00:00,-15.8,-23.5,29.66,South,186,0.0,1.0,67,0.00,,---,0.00,VWS V14.01,2013-02-25 04:00:00,
2013-02-24 19:02:00,-16.2,-23.1,29.66,South,186,1.0,1.0,70,0.00,,---,0.00,VWS V14.01,2013-02-25 04:02:00,
2013-02-24 19:03:00,-16.1,-22.7,29.67,South,188,1.0,1.0,71,0.00,,---,0.00,VWS V14.01,2013-02-25 04:03:00,
2013-02-24 19:04:00,-16.1,-22.4,29.66,South,190,0.0,1.0,72,0.00,,---,0.00,VWS V14.01,2013-02-25 04:04:00,
2013-02-24 19:05:00,-16.2,-23.3,29.66,South,186,0.0,1.0,69,0.00,,---,0.00,VWS V14.01,2013-02-25 04:05:00,
2013-02-24 19:07:00,-15.9,-22.2,29.67,South,191,0.0,1.0,72,0.00,,---,0.00,VWS V14.01,2013-02-25 04:07:00,
2013-02-24 19:08:00,-15.9,-22.2,29.67,South,191,0.0,1.0,72,0.00,,---,0.00,VWS V14.01,2013-02-25 04:08:00,
2013-02-24 19:09:00,-15.9,-22.2,29.67,South,191,0.0,1.0,72,0.00,,---,0.00,VWS V14.01,2013-02-25 04:09:00,
2013-02-24 19:10:00,-15.8,-22.1,29.67,South,191,0.0,1.0,72,0.00,,---,0.00,VWS V14.01,2013-02-25 04:10:00,
2013-02-24 19:13:00,-16.9,-23.7,29.67,North,351,2.0,2.0,70,0.00,,---,0.00,VWS V14.01,2013-02-25 04:13:00,
2013-02-24 19:14:00,-17.1,-23.7,29.67,North,355,1.0,2.0,71,0.00,,---,0.00,VWS V14.01,2013-02-25 04:14:00,
2013-02-24 19:15:00,-16.6,-23.5,29.67,SSW,192,2.0,2.0,70,0.00,,---,0.00,VWS V14.01,2013-02-25 04:15:00,
2013-02-24 19:18:00,-17.6,-24.1,29.67,North,355,2.0,2.0,71,0.00,,---,0.00,VWS V14.01,2013-02-25 04:18:00,
2013-02-24 19:19:00,-17.7,-24.2,29.67,North,350,1.0,2.0,71,0.00,,---,0.00,VWS V14.01,2013-02-25 04:19:00,
2013-02-24 19:20:00,-17.4,-24.0,29.67,North,5,2.0,2.0,71,0.00,,---,0.00,VWS V14.01,2013-02-25 04:20:00,
2013-02-24 19:23:00,-17.8,-24.1,29.67,NNW,348,1.0,1.0,72,0.00,,---,0.00,VWS V14.01,2013-02-25 04:23:00,
2013-02-24 19:24:00,-17.8,-24.1,29.67,NNW,330,2.0,2.0,72,0.00,,---,0.00,VWS V14.01,2013-02-25 04:24:00,
2013-02-24 19:25:00,-17.9,-24.2,29.67,NW,326,2.0,2.0,72,0.00,,---,0.00,VWS V14.01,2013-02-25 04:25:00,
2013-02-24 19:28:00,-18.1,-24.4,29.67,NNW,331,1.0,1.0,72,0.00,,---,0.00,VWS V14.01,2013-02-25 04:28:00,
2013-02-24 19:29:00,-18.3,-24.6,29.67,NW,322,1.0,2.0,72,0.00,,---,0.00,VWS V14.01,2013-02-25 04:29:00,
2013-02-24 19:30:00,-18.3,-24.6,29.67,NW,321,2.0,2.0,72,0.00,,---,0.00,VWS V14.01,2013-02-25 04:30:00,
2013-02-24 19:33:00,-18.3,-24.3,29.67,NNW,330,2.0,2.0,73,0.00,,---,0.00,VWS V14.01,2013-02-25 04:33:00,
2013-02-24 19:34:00,-18.4,-24.4,29.67,NW,323,2.0,2.0,73,0.00,,---,0.00,VWS V14.01,2013-02-25 04:34:00,
2013-02-24 19:35:00,-18.3,-24.3,29.67,NW,323,1.0,2.0,73,0.00,,---,0.00,VWS V14.01,2013-02-25 04:35:00,
2013-02-24 19:38:00,-18.4,-24.4,29.68,NNW,328,0.0,0.0,73,0.00,,---,0.00,VWS V14.01,2013-02-25 04:38:00,
2013-02-24 19:39:00,-18.0,-24.0,29.68,NNW,333,0.0,0.0,73,0.00,,---,0.00,VWS V14.01,2013-02-25 04:39:00,
2013-02-24 19:40:00,-18.0,-23.5,29.68,NNW,333,0.0,0.0,75,0.00,,---,0.00,VWS V14.01,2013-02-25 04:40:00,
2013-02-24 19:43:00,-18.2,-23.7,29.67,NNW,333,1.0,2.0,75,0.00,,---,0.00,VWS V14.01,2013-02-25 04:43:00,
2013-02-24 19:44:00,-18.2,-23.7,29.67,NNW,333,0.0,2.0,75,0.00,,---,0.00,VWS V14.01,2013-02-25 04:44:00,
2013-02-24 19:45:00,-18.2,-23.7,29.67,NNW,333,0.0,2.0,75,0.00,,---,0.00,VWS V14.01,2013-02-25 04:45:00,
2013-02-24 19:47:00,-18.3,-23.5,29.67,NNW,333,0.0,0.0,76,0.00,,---,0.00,VWS V14.01,2013-02-25 04:47:00,
2013-02-24 19:49:00,-18.4,-23.6,29.67,NNW,333,0.0,0.0,76,0.00,,---,0.00,VWS V14.01,2013-02-25 04:49:00,
2013-02-24 19:50:00,-18.4,-23.6,29.67,NNW,333,0.0,0.0,76,0.00,,---,0.00,VWS V14.01,2013-02-25 04:50:00,
2013-02-24 19:53:00,-18.5,-23.7,29.67,NNW,333,0.0,1.0,76,0.00,,---,0.00,VWS V14.01,2013-02-25 04:53:00,
2013-02-24 19:54:00,-18.6,-23.8,29.68,NNW,333,0.0,1.0,76,0.00,,---,0.00,VWS V14.01,2013-02-25 04:54:00,
2013-02-24 19:55:00,-18.6,-23.8,29.68,NNW,333,0.0,1.0,76,0.00,,---,0.00,VWS V14.01,2013-02-25 04:55:00,
2013-02-24 19:58:00,-18.5,-23.5,29.67,NNW,333,0.0,0.0,77,0.00,,---,0.00,VWS V14.01,2013-02-25 04:58:00,
2013-02-24 19:59:00,-18.5,-23.5,29.67,NNW,333,0.0,0.0,77,0.00,,---,0.00,VWS V14.01,2013-02-25 04:59:00,
2013-02-24 20:00:00,-18.5,-23.5,29.67,NNW,333,0.0,0.0,77,0.00,,---,0.00,VWS V14.01,2013-02-25 05:00:00,
2013-02-24 20:05:00,-18.8,-24.0,29.68,NNW,333,0.0,1.0,76,0.00,,---,0.00,VWS V14.01,2013-02-25 05:05:00,
2013-02-24 20:10:00,-19.2,-24.4,29.68,NNW,333,0.0,0.0,76,0.00,,---,0.00,VWS V14.01,2013-02-25 05:10:00,
2013-02-24 20:11:00,-19.3,-24.5,29.68,NNW,333,0.0,0.0,76,0.00,,---,0.00,VWS V14.01,2013-02-25 05:11:00,
2013-02-24 20:15:00,-19.5,-24.7,29.68,NNW,333,0.0,0.0,76,0.00,,---,0.00,VWS V14.01,2013-02-25 05:15:00,
2013-02-24 20:16:00,-19.5,-24.7,29.68,NNW,333,0.0,0.0,76,0.00,,---,0.00,VWS V14.01,2013-02-25 05:16:00,
2013-02-24 20:20:00,-19.5,-24.7,29.68,NNW,333,0.0,0.0,76,0.00,,---,0.00,VWS V14.01,2013-02-25 05:20:00,
2013-02-24 20:21:00,-21.2,-27.1,29.68,NNW,338,2.0,2.0,73,0.00,,---,0.00,VWS V14.01,2013-02-25 05:21:00,
2013-02-24 20:25:00,-21.3,-27.0,29.68,NNW,337,1.0,2.0,74,0.00,,---,0.00,VWS V14.01,2013-02-25 05:25:00,
2013-02-24 20:26:00,-21.4,-27.1,29.68,NW,319,2.0,3.0,74,0.00,,---,0.00,VWS V14.01,2013-02-25 05:26:00,
2013-02-24 20:30:00,-21.4,-27.1,29.68,NW,325,1.0,3.0,74,0.00,,---,0.00,VWS V14.01,2013-02-25 05:30:00,
2013-02-24 20:31:00,-21.4,-27.1,29.68,NW,320,2.0,3.0,74,0.00,,---,0.00,VWS V14.01,2013-02-25 05:31:00,
2013-02-24 20:32:00,-21.4,-27.1,29.68,NW,319,2.0,2.0,74,0.00,,---,0.00,VWS V14.01,2013-02-25 05:32:00,
2013-02-24 20:35:00,-21.4,-27.1,29.68,NW,322,2.0,3.0,74,0.00,,---,0.00,VWS V14.01,2013-02-25 05:35:00,
2013-02-24 20:36:00,-21.4,-27.1,29.68,NNW,336,2.0,3.0,74,0.00,,---,0.00,VWS V14.01,2013-02-25 05:36:00,
2013-02-24 20:37:00,-21.4,-27.1,29.68,NNW,336,1.0,2.0,74,0.00,,---,0.00,VWS V14.01,2013-02-25 05:37:00,
2013-02-24 20:40:00,-21.4,-27.1,29.68,NNW,336,2.0,3.0,74,0.00,,---,0.00,VWS V14.01,2013-02-25 05:40:00,
2013-02-24 20:42:00,-21.6,-27.2,29.68,NNW,346,1.0,2.0,74,0.00,,---,0.00,VWS V14.01,2013-02-25 05:42:00,
2013-02-24 20:45:00,-21.6,-27.2,29.68,NNW,346,1.0,2.0,74,0.00,,---,0.00,VWS V14.01,2013-02-25 05:45:00,
2013-02-24 20:47:00,-22.1,-28.0,29.68,NNW,346,1.0,2.0,73,0.00,,---,0.00,VWS V14.01,2013-02-25 05:47:00,
2013-02-24 20:50:00,-22.1,-28.0,29.68,NNW,346,1.0,2.0,73,0.00,,---,0.00,VWS V14.01,2013-02-25 05:50:00,
2013-02-24 20:52:00,-20.9,-26.3,29.68,NNW,333,0.0,0.0,75,0.00,,---,0.00,VWS V14.01,2013-02-25 05:52:00,
2013-02-24 20:53:00,-21.0,-26.2,29.68,NNW,333,0.0,0.0,76,0.00,,---,0.00,VWS V14.01,2013-02-25 05:53:00,
2013-02-24 20:55:00,-20.9,-26.3,29.68,NNW,333,0.0,2.0,75,0.00,,---,0.00,VWS V14.01,2013-02-25 05:55:00,
2013-02-24 20:57:00,-21.2,-26.4,29.69,NNW,333,0.0,0.0,76,0.00,,---,0.00,VWS V14.01,2013-02-25 05:57:00,
2013-02-24 20:59:00,-21.2,-26.4,29.69,NNW,333,0.0,0.0,76,0.00,,---,0.00,VWS V14.01,2013-02-25 05:59:00,
2013-02-24 21:00:00,-21.2,-26.4,29.68,NNW,333,0.0,0.0,76,0.00,,---,0.00,VWS V14.01,2013-02-25 06:00:00,
2013-02-24 21:02:00,-21.4,-26.6,29.69,NNW,333,0.0,0.0,76,0.00,,---,0.00,VWS V14.01,2013-02-25 06:02:00,
2013-02-24 21:03:00,-21.5,-26.7,29.69,NNW,333,0.0,0.0,76,0.00,,---,0.00,VWS V14.01,2013-02-25 06:03:00,
2013-02-24 21:04:00,-21.5,-26.7,29.69,NNW,333,0.0,0.0,76,0.00,,---,0.00,VWS V14.01,2013-02-25 06:04:00,
2013-02-24 21:05:00,-21.4,-26.6,29.69,NNW,333,0.0,0.0,76,0.00,,---,0.00,VWS V14.01,2013-02-25 06:05:00,
2013-02-24 21:08:00,-21.6,-26.5,29.69,NNW,333,0.0,1.0,77,0.00,,---,0.00,VWS V14.01,2013-02-25 06:08:00,
2013-02-24 21:09:00,-21.7,-26.6,29.69,NNW,333,0.0,1.0,77,0.00,,---,0.00,VWS V14.01,2013-02-25 06:09:00,
2013-02-24 21:10:00,-21.6,-26.8,29.69,NNW,333,1.0,1.0,76,0.00,,---,0.00,VWS V14.01,2013-02-25 06:10:00,
2013-02-24 21:13:00,-21.9,-27.0,29.69,NNW,333,0.0,0.0,76,0.00,,---,0.00,VWS V14.01,2013-02-25 06:13:00,
2013-02-24 21:14:00,-21.9,-26.8,29.69,NNW,333,0.0,0.0,77,0.00,,---,0.00,VWS V14.01,2013-02-25 06:14:00,
2013-02-24 21:15:00,-21.8,-27.0,29.69,NNW,333,0.0,1.0,76,0.00,,---,0.00,VWS V14.01,2013-02-25 06:15:00,
2013-02-24 21:18:00,-22.0,-26.9,29.69,NNW,333,0.0,0.0,77,0.00,,---,0.00,VWS V14.01,2013-02-25 06:18:00,
2013-02-24 21:19:00,-22.0,-26.9,29.69,NNW,333,0.0,0.0,77,0.00,,---,0.00,VWS V14.01,2013-02-25 06:19:00,
2013-02-24 21:20:00,-22.0,-26.9,29.69,NNW,333,0.0,0.0,77,0.00,,---,0.00,VWS V14.01,2013-02-25 06:20:00,
2013-02-24 21:23:00,-22.0,-26.9,29.69,NNW,333,0.0,0.0,77,0.00,,---,0.00,VWS V14.01,2013-02-25 06:23:00,
2013-02-24 21:24:00,-22.1,-27.0,29.69,NNW,333,0.0,0.0,77,0.00,,---,0.00,VWS V14.01,2013-02-25 06:24:00,
2013-02-24 21:25:00,-22.0,-26.9,29.69,NNW,333,0.0,1.0,77,0.00,,---,0.00,VWS V14.01,2013-02-25 06:25:00,
2013-02-24 21:28:00,-22.3,-27.2,29.70,NNW,333,0.0,0.0,77,0.00,,---,0.00,VWS V14.01,2013-02-25 06:28:00,
2013-02-24 21:29:00,-22.3,-27.2,29.70,NNW,333,0.0,0.0,77,0.00,,---,0.00,VWS V14.01,2013-02-25 06:29:00,
2013-02-24 21:30:00,-22.3,-27.2,29.69,NNW,333,0.0,0.0,77,0.00,,---,0.00,VWS V14.01,2013-02-25 06:30:00,
2013-02-24 21:34:00,-22.4,-27.3,29.70,NNW,333,1.0,2.0,77,0.00,,---,0.00,VWS V14.01,2013-02-25 06:34:00,
2013-02-24 21:35:00,-22.4,-27.3,29.70,NNW,333,0.0,2.0,77,0.00,,---,0.00,VWS V14.01,2013-02-25 06:35:00,
2013-02-24 21:39:00,-22.5,-27.4,29.70,NNW,333,0.0,2.0,77,0.00,,---,0.00,VWS V14.01,2013-02-25 06:39:00,
2013-02-24 21:40:00,-22.5,-27.4,29.70,NNW,333,0.0,2.0,77,0.00,,---,0.00,VWS V14.01,2013-02-25 06:40:00,
2013-02-24 21:44:00,-22.6,-27.5,29.70,NNW,333,0.0,0.0,77,0.00,,---,0.00,VWS V14.01,2013-02-25 06:44:00,
2013-02-24 21:45:00,-22.7,-27.6,29.70,NNW,333,0.0,0.0,77,0.00,,---,0.00,VWS V14.01,2013-02-25 06:45:00,
2013-02-24 21:49:00,-22.9,-27.8,29.70,NNW,333,0.0,1.0,77,0.00,,---,0.00,VWS V14.01,2013-02-25 06:49:00,
2013-02-24 21:50:00,-22.9,-27.8,29.70,NNW,333,0.0,1.0,77,0.00,,---,0.00,VWS V14.01,2013-02-25 06:50:00,
2013-02-24 21:55:00,-23.1,-28.0,29.70,NNW,333,0.0,0.0,77,0.00,,---,0.00,VWS V14.01,2013-02-25 06:55:00,
2013-02-24 22:00:00,-23.2,-28.1,29.70,NNW,333,0.0,1.0,77,0.00,,---,0.00,VWS V14.01,2013-02-25 07:00:00,
2013-02-24 22:05:00,-23.0,-27.6,29.70,NNW,333,0.0,0.0,78,0.00,,---,0.00,VWS V14.01,2013-02-25 07:05:00,
2013-02-24 22:06:00,-23.0,-27.6,29.70,NNW,333,0.0,0.0,78,0.00,,---,0.00,VWS V14.01,2013-02-25 07:06:00,
2013-02-24 22:10:00,-23.1,-27.7,29.70,NNW,333,0.0,1.0,78,0.00,,---,0.00,VWS V14.01,2013-02-25 07:10:00,
2013-02-24 22:11:00,-23.1,-28.0,29.70,NNW,333,0.0,1.0,77,0.00,,---,0.00,VWS V14.01,2013-02-25 07:11:00,
2013-02-24 22:15:00,-23.2,-28.1,29.70,NNW,333,0.0,2.0,77,0.00,,---,0.00,VWS V14.01,2013-02-25 07:15:00,
2013-02-24 22:16:00,-23.3,-28.2,29.70,NNW,333,0.0,2.0,77,0.00,,---,0.00,VWS V14.01,2013-02-25 07:16:00,
2013-02-24 22:20:00,-23.4,-28.3,29.70,NNW,333,0.0,0.0,77,0.00,,---,0.00,VWS V14.01,2013-02-25 07:20:00,
2013-02-24 22:21:00,-23.5,-28.4,29.70,NNW,333,0.0,0.0,77,0.00,,---,0.00,VWS V14.01,2013-02-25 07:21:00,
2013-02-24 22:25:00,-23.7,-28.6,29.70,NNW,333,0.0,0.0,77,0.00,,---,0.00,VWS V14.01,2013-02-25 07:25:00,
2013-02-24 22:26:00,-23.7,-28.6,29.71,NNW,333,0.0,0.0,77,0.00,,---,0.00,VWS V14.01,2013-02-25 07:26:00,
2013-02-24 22:27:00,-23.8,-28.7,29.71,NNW,333,0.0,0.0,77,0.00,,---,0.00,VWS V14.01,2013-02-25 07:27:00,
2013-02-24 22:30:00,-23.8,-28.7,29.71,NNW,333,0.0,0.0,77,0.00,,---,0.00,VWS V14.01,2013-02-25 07:30:00,
2013-02-24 22:31:00,-23.9,-28.8,29.71,NNW,333,0.0,1.0,77,0.00,,---,0.00,VWS V14.01,2013-02-25 07:31:00,
2013-02-24 22:32:00,-23.9,-28.8,29.71,NNW,333,0.0,0.0,77,0.00,,---,0.00,VWS V14.01,2013-02-25 07:32:00,
2013-02-24 22:35:00,-24.0,-28.9,29.71,NNW,333,0.0,1.0,77,0.00,,---,0.00,VWS V14.01,2013-02-25 07:35:00,
2013-02-24 22:36:00,-24.0,-28.9,29.71,NNW,333,0.0,1.0,77,0.00,,---,0.00,VWS V14.01,2013-02-25 07:36:00,
2013-02-24 22:37:00,-24.0,-28.9,29.71,NNW,333,0.0,0.0,77,0.00,,---,0.00,VWS V14.01,2013-02-25 07:37:00,
2013-02-24 22:40:00,-24.0,-28.9,29.71,NNW,333,0.0,1.0,77,0.00,,---,0.00,VWS V14.01,2013-02-25 07:40:00,
2013-02-24 22:41:00,-24.2,-29.0,29.70,NNW,333,0.0,0.0,77,0.00,,---,0.00,VWS V14.01,2013-02-25 07:41:00,
2013-02-24 22:42:00,-24.2,-29.0,29.71,NNW,333,0.0,0.0,77,0.00,,---,0.00,VWS V14.01,2013-02-25 07:42:00,
2013-02-24 22:45:00,-24.2,-29.0,29.71,NNW,333,0.0,0.0,77,0.00,,---,0.00,VWS V14.01,2013-02-25 07:45:00,
2013-02-24 22:46:00,-24.4,-29.2,29.71,NNW,333,0.0,0.0,77,0.00,,---,0.00,VWS V14.01,2013-02-25 07:46:00,
2013-02-24 22:47:00,-24.4,-29.2,29.71,NNW,333,0.0,0.0,77,0.00,,---,0.00,VWS V14.01,2013-02-25 07:47:00,
2013-02-24 22:50:00,-24.4,-29.2,29.71,NNW,333,0.0,0.0,77,0.00,,---,0.00,VWS V14.01,2013-02-25 07:50:00,
2013-02-24 22:51:00,-24.6,-29.4,29.71,NNW,333,0.0,0.0,77,0.00,,---,0.00,VWS V14.01,2013-02-25 07:51:00,
2013-02-24 22:52:00,-24.6,-29.4,29.71,NNW,333,0.0,0.0,77,0.00,,---,0.00,VWS V14.01,2013-02-25 07:52:00,
2013-02-24 22:55:00,-24.6,-29.4,29.71,NNW,333,0.0,0.0,77,0.00,,---,0.00,VWS V14.01,2013-02-25 07:55:00,
2013-02-24 22:56:00,-24.7,-29.8,29.71,NNW,333,0.0,0.0,76,0.00,,---,0.00,VWS V14.01,2013-02-25 07:56:00,
2013-02-24 22:57:00,-24.8,-29.9,29.71,NNW,333,0.0,0.0,76,0.00,,---,0.00,VWS V14.01,2013-02-25 07:57:00,
2013-02-24 22:58:00,-24.8,-29.9,29.71,NNW,333,0.0,0.0,76,0.00,,---,0.00,VWS V14.01,2013-02-25 07:58:00,
2013-02-24 23:00:00,-24.8,-29.9,29.71,NNW,333,0.0,0.0,76,0.00,,---,0.00,VWS V14.01,2013-02-25 08:00:00,
2013-02-24 23:01:00,-24.9,-30.0,29.72,NNW,333,0.0,0.0,76,0.00,,---,0.00,VWS V14.01,2013-02-25 08:01:00,
2013-02-24 23:02:00,-24.9,-30.0,29.72,NNW,333,0.0,0.0,76,0.00,,---,0.00,VWS V14.01,2013-02-25 08:02:00,
2013-02-24 23:03:00,-24.9,-30.0,29.72,NNW,333,0.0,0.0,76,0.00,,---,0.00,VWS V14.01,2013-02-25 08:03:00,
2013-02-24 23:05:00,-24.9,-30.0,29.72,NNW,333,0.0,0.0,76,0.00,,---,0.00,VWS V14.01,2013-02-25 08:05:00,
2013-02-24 23:06:00,-25.1,-29.9,29.72,NNW,333,0.0,0.0,77,0.00,,---,0.00,VWS V14.01,2013-02-25 08:06:00,
2013-02-24 23:07:00,-25.1,-29.9,29.72,NNW,333,0.0,0.0,77,0.00,,---,0.00,VWS V14.01,2013-02-25 08:07:00,
2013-02-24 23:08:00,-25.1,-29.9,29.72,NNW,333,0.0,0.0,77,0.00,,---,0.00,VWS V14.01,2013-02-25 08:08:00,
2013-02-24 23:10:00,-25.0,-29.8,29.72,NNW,333,0.0,0.0,77,0.00,,---,0.00,VWS V14.01,2013-02-25 08:10:00,
2013-02-24 23:11:00,-25.2,-30.0,29.72,NNW,333,0.0,0.0,77,0.00,,---,0.00,VWS V14.01,2013-02-25 08:11:00,
2013-02-24 23:12:00,-25.2,-30.0,29.72,NNW,333,0.0,0.0,77,0.00,,---,0.00,VWS V14.01,2013-02-25 08:12:00,
2013-02-24 23:13:00,-25.2,-30.0,29.72,NNW,333,0.0,0.0,77,0.00,,---,0.00,VWS V14.01,2013-02-25 08:13:00,
2013-02-24 23:15:00,-25.2,-30.0,29.72,NNW,333,0.0,0.0,77,0.00,,---,0.00,VWS V14.01,2013-02-25 08:15:00,
2013-02-24 23:16:00,-25.4,-30.2,29.72,NNW,333,0.0,0.0,77,0.00,,---,0.00,VWS V14.01,2013-02-25 08:16:00,
2013-02-24 23:17:00,-25.4,-30.2,29.72,NNW,333,0.0,0.0,77,0.00,,---,0.00,VWS V14.01,2013-02-25 08:17:00,
2013-02-24 23:18:00,-25.4,-30.2,29.72,NNW,333,0.0,0.0,77,0.00,,---,0.00,VWS V14.01,2013-02-25 08:18:00,
2013-02-24 23:19:00,-25.4,-30.2,29.72,NNW,333,0.0,0.0,77,0.00,,---,0.00,VWS V14.01,2013-02-25 08:19:00,
2013-02-24 23:20:00,-25.4,-30.2,29.72,NNW,333,0.0,0.0,77,0.00,,---,0.00,VWS V14.01,2013-02-25 08:20:00,
2013-02-24 23:21:00,-25.5,-30.3,29.72,NNW,333,0.0,0.0,77,0.00,,---,0.00,VWS V14.01,2013-02-25 08:21:00,
2013-02-24 23:22:00,-25.5,-30.3,29.72,NNW,333,0.0,0.0,77,0.00,,---,0.00,VWS V14.01,2013-02-25 08:22:00,
2013-02-24 23:23:00,-25.5,-30.3,29.72,NNW,333,0.0,0.0,77,0.00,,---,0.00,VWS V14.01,2013-02-25 08:23:00,
2013-02-24 23:24:00,-25.5,-30.3,29.73,NNW,333,0.0,0.0,77,0.00,,---,0.00,VWS V14.01,2013-02-25 08:24:00,
2013-02-24 23:25:00,-25.5,-30.3,29.72,NNW,333,0.0,0.0,77,0.00,,---,0.00,VWS V14.01,2013-02-25 08:25:00,
2013-02-24 23:26:00,-25.6,-30.4,29.73,NNW,333,0.0,0.0,77,0.00,,---,0.00,VWS V14.01,2013-02-25 08:26:00,
2013-02-24 23:28:00,-25.6,-30.4,29.73,NNW,333,0.0,0.0,77,0.00,,---,0.00,VWS V14.01,2013-02-25 08:28:00,
2013-02-24 23:29:00,-25.6,-30.4,29.73,NNW,333,0.0,0.0,77,0.00,,---,0.00,VWS V14.01,2013-02-25 08:29:00,
2013-02-24 23:30:00,-25.6,-30.4,29.73,NNW,333,0.0,0.0,77,0.00,,---,0.00,VWS V14.01,2013-02-25 08:30:00,
2013-02-24 23:31:00,-25.6,-30.4,29.73,NNW,333,0.0,0.0,77,0.00,,---,0.00,VWS V14.01,2013-02-25 08:31:00,
2013-02-24 23:33:00,-25.7,-30.8,29.73,NNW,333,0.0,0.0,76,0.00,,---,0.00,VWS V14.01,2013-02-25 08:33:00,
2013-02-24 23:34:00,-25.7,-30.8,29.73,NNW,333,0.0,0.0,76,0.00,,---,0.00,VWS V14.01,2013-02-25 08:34:00,
2013-02-24 23:35:00,-25.6,-30.4,29.73,NNW,333,0.0,0.0,77,0.00,,---,0.00,VWS V14.01,2013-02-25 08:35:00,
2013-02-24 23:36:00,-25.8,-30.9,29.73,NNW,333,0.0,0.0,76,0.00,,---,0.00,VWS V14.01,2013-02-25 08:36:00,
2013-02-24 23:38:00,-25.8,-30.6,29.73,NNW,333,0.0,0.0,77,0.00,,---,0.00,VWS V14.01,2013-02-25 08:38:00,
2013-02-24 23:39:00,-25.9,-30.7,29.73,NNW,333,0.0,0.0,77,0.00,,---,0.00,VWS V14.01,2013-02-25 08:39:00,
2013-02-24 23:40:00,-25.8,-30.9,29.73,NNW,333,0.0,0.0,76,0.00,,---,0.00,VWS V14.01,2013-02-25 08:40:00,
2013-02-24 23:41:00,-25.9,-30.7,29.73,NNW,333,0.0,0.0,77,0.00,,---,0.00,VWS V14.01,2013-02-25 08:41:00,
2013-02-24 23:43:00,-25.9,-30.7,29.73,NNW,333,0.0,0.0,77,0.00,,---,0.00,VWS V14.01,2013-02-25 08:43:00,
2013-02-24 23:44:00,-25.9,-30.7,29.73,NNW,333,0.0,0.0,77,0.00,,---,0.00,VWS V14.01,2013-02-25 08:44:00,
2013-02-24 23:45:00,-25.9,-30.7,29.73,NNW,333,0.0,0.0,77,0.00,,---,0.00,VWS V14.01,2013-02-25 08:45:00,
2013-02-24 23:46:00,-25.9,-30.7,29.73,NNW,333,0.0,0.0,77,0.00,,---,0.00,VWS V14.01,2013-02-25 08:46:00,
2013-02-24 23:48:00,-25.9,-30.7,29.73,NNW,333,0.0,0.0,77,0.00,,---,0.00,VWS V14.01,2013-02-25 08:48:00,
2013-02-24 23:49:00,-25.9,-30.7,29.73,NNW,333,0.0,0.0,77,0.00,,---,0.00,VWS V14.01,2013-02-25 08:49:00,
2013-02-24 23:50:00,-25.9,-30.7,29.73,NNW,333,0.0,0.0,77,0.00,,---,0.00,VWS V14.01,2013-02-25 08:50:00,
2013-02-24 23:51:00,-25.9,-30.7,29.73,NNW,333,0.0,0.0,77,0.00,,---,0.00,VWS V14.01,2013-02-25 08:51:00,
2013-02-24 23:53:00,-25.8,-30.6,29.73,NNW,333,0.0,0.0,77,0.00,,---,0.00,VWS V14.01,2013-02-25 08:53:00,
2013-02-24 23:54:00,-25.7,-30.5,29.73,NNW,333,0.0,0.0,77,0.00,,---,0.00,VWS V14.01,2013-02-25 08:54:00,
2013-02-24 23:55:00,-25.9,-30.7,29.73,NNW,333,0.0,0.0,77,0.00,,---,0.00,VWS V14.01,2013-02-25 08:55:00,
2013-02-24 23:56:00,-25.7,-30.5,29.73,NNW,333,0.0,0.0,77,0.00,,---,0.00,VWS V14.01,2013-02-25 08:56:00,
2013-02-24 23:57:00,-25.7,-30.5,29.73,NNW,333,0.0,0.0,77,0.00,,---,0.00,VWS V14.01,2013-02-25 08:57:00,
2013-02-24 23:59:00,-25.7,-30.5,29.73,NNW,333,0.0,0.0,77,0.00,,---,0.00,VWS V14.01,2013-02-25 08:59:00,